<?xml version="1.0" encoding="UTF-8" standalone="no" ?>
<gpx xmlns="http://www.topografix.com/GPX/1/1" xmlns:xsi="http://www.w3.org/2001/XMLSchema-instance" xsi:schemaLocation="http://www.topografix.com/GPX/1/1 http://www.topografix.com/GPX/1/1/gpx.xsd" version="1.1" creator="VisuGPX - https://www.visugpx.com">
  <metadata>
    <name>Vtt Montagne de Thyie</name>
    <desc><![CDATA[Trace VTT 27/03/2001]]></desc>
  </metadata>
  <trk>
    <name><![CDATA[2011-03-27T09:19:35Z]]></name>
    <trkseg>
      <trkpt lat="43.71994" lon="6.86058">
        <ele>863.4013672</ele>
        <time>2011-03-27T09:19:36Z</time>
      </trkpt>
      <trkpt lat="43.71994" lon="6.86058">
        <ele>863.4013672</ele>
        <time>2011-03-27T09:19:37Z</time>
      </trkpt>
      <trkpt lat="43.71995" lon="6.86059">
        <ele>863.4013672</ele>
        <time>2011-03-27T09:19:40Z</time>
      </trkpt>
      <trkpt lat="43.72003" lon="6.86068">
        <ele>864.8432617</ele>
        <time>2011-03-27T09:19:45Z</time>
      </trkpt>
      <trkpt lat="43.72014" lon="6.86063">
        <ele>863.4013672</ele>
        <time>2011-03-27T09:19:51Z</time>
      </trkpt>
      <trkpt lat="43.72018" lon="6.86066">
        <ele>862.9206543</ele>
        <time>2011-03-27T09:19:56Z</time>
      </trkpt>
      <trkpt lat="43.72024" lon="6.8607">
        <ele>864.3625488</ele>
        <time>2011-03-27T09:20:03Z</time>
      </trkpt>
      <trkpt lat="43.72043" lon="6.86069">
        <ele>863.4013672</ele>
        <time>2011-03-27T09:20:09Z</time>
      </trkpt>
      <trkpt lat="43.72065" lon="6.86064">
        <ele>862.4399414</ele>
        <time>2011-03-27T09:20:15Z</time>
      </trkpt>
      <trkpt lat="43.72083" lon="6.86066">
        <ele>862.4399414</ele>
        <time>2011-03-27T09:20:21Z</time>
      </trkpt>
      <trkpt lat="43.72099" lon="6.8607">
        <ele>863.8818359</ele>
        <time>2011-03-27T09:20:28Z</time>
      </trkpt>
      <trkpt lat="43.72113" lon="6.86071">
        <ele>865.3239746</ele>
        <time>2011-03-27T09:20:34Z</time>
      </trkpt>
      <trkpt lat="43.72131" lon="6.8607">
        <ele>866.7658691</ele>
        <time>2011-03-27T09:20:42Z</time>
      </trkpt>
      <trkpt lat="43.72143" lon="6.8607">
        <ele>868.2077637</ele>
        <time>2011-03-27T09:20:48Z</time>
      </trkpt>
      <trkpt lat="43.72157" lon="6.8607">
        <ele>869.1691895</ele>
        <time>2011-03-27T09:20:55Z</time>
      </trkpt>
      <trkpt lat="43.72171" lon="6.86073">
        <ele>870.611084</ele>
        <time>2011-03-27T09:21:02Z</time>
      </trkpt>
      <trkpt lat="43.72183" lon="6.86068">
        <ele>872.0529785</ele>
        <time>2011-03-27T09:21:08Z</time>
      </trkpt>
      <trkpt lat="43.72185" lon="6.86066">
        <ele>871.5722656</ele>
        <time>2011-03-27T09:21:09Z</time>
      </trkpt>
      <trkpt lat="43.72181" lon="6.86053">
        <ele>871.0917969</ele>
        <time>2011-03-27T09:21:14Z</time>
      </trkpt>
      <trkpt lat="43.72164" lon="6.86031">
        <ele>872.5336914</ele>
        <time>2011-03-27T09:21:24Z</time>
      </trkpt>
      <trkpt lat="43.72151" lon="6.86013">
        <ele>873.9755859</ele>
        <time>2011-03-27T09:21:32Z</time>
      </trkpt>
      <trkpt lat="43.72138" lon="6.86006">
        <ele>874.9370117</ele>
        <time>2011-03-27T09:21:38Z</time>
      </trkpt>
      <trkpt lat="43.72124" lon="6.86">
        <ele>877.3405762</ele>
        <time>2011-03-27T09:21:44Z</time>
      </trkpt>
      <trkpt lat="43.72126" lon="6.85986">
        <ele>878.3017578</ele>
        <time>2011-03-27T09:21:49Z</time>
      </trkpt>
      <trkpt lat="43.72139" lon="6.85982">
        <ele>879.7436523</ele>
        <time>2011-03-27T09:21:54Z</time>
      </trkpt>
      <trkpt lat="43.72144" lon="6.85982">
        <ele>879.7436523</ele>
        <time>2011-03-27T09:21:56Z</time>
      </trkpt>
      <trkpt lat="43.72169" lon="6.85985">
        <ele>880.7050781</ele>
        <time>2011-03-27T09:22:05Z</time>
      </trkpt>
      <trkpt lat="43.72191" lon="6.85992">
        <ele>881.185791</ele>
        <time>2011-03-27T09:22:14Z</time>
      </trkpt>
      <trkpt lat="43.72201" lon="6.85998">
        <ele>881.6662598</ele>
        <time>2011-03-27T09:22:19Z</time>
      </trkpt>
      <trkpt lat="43.72211" lon="6.86013">
        <ele>884.550293</ele>
        <time>2011-03-27T09:22:26Z</time>
      </trkpt>
      <trkpt lat="43.72226" lon="6.86025">
        <ele>887.9147949</ele>
        <time>2011-03-27T09:22:33Z</time>
      </trkpt>
      <trkpt lat="43.72239" lon="6.86028">
        <ele>887.9147949</ele>
        <time>2011-03-27T09:22:38Z</time>
      </trkpt>
      <trkpt lat="43.72259" lon="6.8603">
        <ele>887.9147949</ele>
        <time>2011-03-27T09:22:46Z</time>
      </trkpt>
      <trkpt lat="43.72273" lon="6.86032">
        <ele>889.3566895</ele>
        <time>2011-03-27T09:22:52Z</time>
      </trkpt>
      <trkpt lat="43.72286" lon="6.86033">
        <ele>888.8762207</ele>
        <time>2011-03-27T09:22:58Z</time>
      </trkpt>
      <trkpt lat="43.72299" lon="6.86033">
        <ele>889.8374023</ele>
        <time>2011-03-27T09:23:04Z</time>
      </trkpt>
      <trkpt lat="43.72315" lon="6.86034">
        <ele>891.7600098</ele>
        <time>2011-03-27T09:23:11Z</time>
      </trkpt>
      <trkpt lat="43.72328" lon="6.86031">
        <ele>893.6828613</ele>
        <time>2011-03-27T09:23:17Z</time>
      </trkpt>
      <trkpt lat="43.72342" lon="6.86019">
        <ele>894.644043</ele>
        <time>2011-03-27T09:23:24Z</time>
      </trkpt>
      <trkpt lat="43.72354" lon="6.86">
        <ele>896.0861816</ele>
        <time>2011-03-27T09:23:32Z</time>
      </trkpt>
      <trkpt lat="43.72368" lon="6.85977">
        <ele>897.0473633</ele>
        <time>2011-03-27T09:23:41Z</time>
      </trkpt>
      <trkpt lat="43.72383" lon="6.8596">
        <ele>898.0087891</ele>
        <time>2011-03-27T09:23:49Z</time>
      </trkpt>
      <trkpt lat="43.72387" lon="6.85957">
        <ele>898.4892578</ele>
        <time>2011-03-27T09:23:51Z</time>
      </trkpt>
      <trkpt lat="43.72394" lon="6.85953">
        <ele>898.9699707</ele>
        <time>2011-03-27T09:23:54Z</time>
      </trkpt>
      <trkpt lat="43.7241" lon="6.85945">
        <ele>899.9313965</ele>
        <time>2011-03-27T09:24:00Z</time>
      </trkpt>
      <trkpt lat="43.72415" lon="6.85943">
        <ele>900.8925781</ele>
        <time>2011-03-27T09:24:02Z</time>
      </trkpt>
      <trkpt lat="43.72418" lon="6.85943">
        <ele>900.8925781</ele>
        <time>2011-03-27T09:24:03Z</time>
      </trkpt>
      <trkpt lat="43.72421" lon="6.85942">
        <ele>900.8925781</ele>
        <time>2011-03-27T09:24:04Z</time>
      </trkpt>
      <trkpt lat="43.72426" lon="6.85941">
        <ele>901.8540039</ele>
        <time>2011-03-27T09:24:06Z</time>
      </trkpt>
      <trkpt lat="43.72429" lon="6.85941">
        <ele>902.3344727</ele>
        <time>2011-03-27T09:24:07Z</time>
      </trkpt>
      <trkpt lat="43.72431" lon="6.85941">
        <ele>902.8151855</ele>
        <time>2011-03-27T09:24:08Z</time>
      </trkpt>
      <trkpt lat="43.72433" lon="6.85941">
        <ele>903.2958984</ele>
        <time>2011-03-27T09:24:09Z</time>
      </trkpt>
      <trkpt lat="43.72435" lon="6.85941">
        <ele>903.7766113</ele>
        <time>2011-03-27T09:24:10Z</time>
      </trkpt>
      <trkpt lat="43.7244" lon="6.8594">
        <ele>903.7766113</ele>
        <time>2011-03-27T09:24:12Z</time>
      </trkpt>
      <trkpt lat="43.72442" lon="6.85938">
        <ele>903.2958984</ele>
        <time>2011-03-27T09:24:13Z</time>
      </trkpt>
      <trkpt lat="43.72441" lon="6.85927">
        <ele>902.3344727</ele>
        <time>2011-03-27T09:24:17Z</time>
      </trkpt>
      <trkpt lat="43.72436" lon="6.85922">
        <ele>902.3344727</ele>
        <time>2011-03-27T09:24:19Z</time>
      </trkpt>
      <trkpt lat="43.72421" lon="6.8591">
        <ele>906.6604004</ele>
        <time>2011-03-27T09:24:26Z</time>
      </trkpt>
      <trkpt lat="43.72409" lon="6.859">
        <ele>908.583252</ele>
        <time>2011-03-27T09:24:32Z</time>
      </trkpt>
      <trkpt lat="43.72398" lon="6.85895">
        <ele>909.0639648</ele>
        <time>2011-03-27T09:24:38Z</time>
      </trkpt>
      <trkpt lat="43.72383" lon="6.85889">
        <ele>910.5058594</ele>
        <time>2011-03-27T09:24:46Z</time>
      </trkpt>
      <trkpt lat="43.72374" lon="6.85883">
        <ele>911.4672852</ele>
        <time>2011-03-27T09:24:51Z</time>
      </trkpt>
      <trkpt lat="43.72374" lon="6.85875">
        <ele>911.4672852</ele>
        <time>2011-03-27T09:24:55Z</time>
      </trkpt>
      <trkpt lat="43.72385" lon="6.85869">
        <ele>910.9865723</ele>
        <time>2011-03-27T09:25:00Z</time>
      </trkpt>
      <trkpt lat="43.72403" lon="6.85867">
        <ele>912.4284668</ele>
        <time>2011-03-27T09:25:07Z</time>
      </trkpt>
      <trkpt lat="43.7242" lon="6.85868">
        <ele>913.3898926</ele>
        <time>2011-03-27T09:25:13Z</time>
      </trkpt>
      <trkpt lat="43.72435" lon="6.85873">
        <ele>914.8317871</ele>
        <time>2011-03-27T09:25:20Z</time>
      </trkpt>
      <trkpt lat="43.72448" lon="6.85879">
        <ele>914.8317871</ele>
        <time>2011-03-27T09:25:26Z</time>
      </trkpt>
      <trkpt lat="43.72457" lon="6.8589">
        <ele>914.3510742</ele>
        <time>2011-03-27T09:25:33Z</time>
      </trkpt>
      <trkpt lat="43.72461" lon="6.85888">
        <ele>914.8317871</ele>
        <time>2011-03-27T09:25:36Z</time>
      </trkpt>
      <trkpt lat="43.72462" lon="6.85889">
        <ele>914.3510742</ele>
        <time>2011-03-27T09:25:39Z</time>
      </trkpt>
      <trkpt lat="43.72466" lon="6.85894">
        <ele>913.8703613</ele>
        <time>2011-03-27T09:25:43Z</time>
      </trkpt>
      <trkpt lat="43.72475" lon="6.859">
        <ele>913.3898926</ele>
        <time>2011-03-27T09:25:49Z</time>
      </trkpt>
      <trkpt lat="43.72485" lon="6.85906">
        <ele>914.8317871</ele>
        <time>2011-03-27T09:25:54Z</time>
      </trkpt>
      <trkpt lat="43.72505" lon="6.85917">
        <ele>920.5996094</ele>
        <time>2011-03-27T09:26:04Z</time>
      </trkpt>
      <trkpt lat="43.72516" lon="6.85925">
        <ele>923.0029297</ele>
        <time>2011-03-27T09:26:11Z</time>
      </trkpt>
      <trkpt lat="43.72526" lon="6.85931">
        <ele>924.4450684</ele>
        <time>2011-03-27T09:26:17Z</time>
      </trkpt>
      <trkpt lat="43.72529" lon="6.85933">
        <ele>924.4450684</ele>
        <time>2011-03-27T09:26:19Z</time>
      </trkpt>
      <trkpt lat="43.72529" lon="6.85933">
        <ele>924.4450684</ele>
        <time>2011-03-27T09:26:19Z</time>
      </trkpt>
      <trkpt lat="43.72541" lon="6.85938">
        <ele>927.3291016</ele>
        <time>2011-03-27T09:26:27Z</time>
      </trkpt>
      <trkpt lat="43.7255" lon="6.85938">
        <ele>924.9257813</ele>
        <time>2011-03-27T09:26:34Z</time>
      </trkpt>
      <trkpt lat="43.72563" lon="6.85937">
        <ele>923.0029297</ele>
        <time>2011-03-27T09:26:42Z</time>
      </trkpt>
      <trkpt lat="43.72573" lon="6.85945">
        <ele>929.2514648</ele>
        <time>2011-03-27T09:26:49Z</time>
      </trkpt>
      <trkpt lat="43.72585" lon="6.85946">
        <ele>931.1743164</ele>
        <time>2011-03-27T09:26:56Z</time>
      </trkpt>
      <trkpt lat="43.72594" lon="6.85946">
        <ele>933.0966797</ele>
        <time>2011-03-27T09:27:02Z</time>
      </trkpt>
      <trkpt lat="43.72608" lon="6.85947">
        <ele>935.5</ele>
        <time>2011-03-27T09:27:11Z</time>
      </trkpt>
      <trkpt lat="43.72618" lon="6.85947">
        <ele>935.9807129</ele>
        <time>2011-03-27T09:27:18Z</time>
      </trkpt>
      <trkpt lat="43.72625" lon="6.85951">
        <ele>936.9418945</ele>
        <time>2011-03-27T09:27:24Z</time>
      </trkpt>
      <trkpt lat="43.72626" lon="6.8595">
        <ele>936.4614258</ele>
        <time>2011-03-27T09:27:25Z</time>
      </trkpt>
      <trkpt lat="43.72628" lon="6.85939">
        <ele>938.8647461</ele>
        <time>2011-03-27T09:27:31Z</time>
      </trkpt>
      <trkpt lat="43.72624" lon="6.85935">
        <ele>939.8259277</ele>
        <time>2011-03-27T09:27:34Z</time>
      </trkpt>
      <trkpt lat="43.72609" lon="6.8593">
        <ele>939.3452148</ele>
        <time>2011-03-27T09:27:41Z</time>
      </trkpt>
      <trkpt lat="43.72594" lon="6.85924">
        <ele>938.8647461</ele>
        <time>2011-03-27T09:27:48Z</time>
      </trkpt>
      <trkpt lat="43.72586" lon="6.85917">
        <ele>938.8647461</ele>
        <time>2011-03-27T09:27:53Z</time>
      </trkpt>
      <trkpt lat="43.72574" lon="6.85907">
        <ele>939.8259277</ele>
        <time>2011-03-27T09:27:59Z</time>
      </trkpt>
      <trkpt lat="43.72564" lon="6.85893">
        <ele>943.1906738</ele>
        <time>2011-03-27T09:28:06Z</time>
      </trkpt>
      <trkpt lat="43.72555" lon="6.85882">
        <ele>946.074707</ele>
        <time>2011-03-27T09:28:12Z</time>
      </trkpt>
      <trkpt lat="43.72547" lon="6.85871">
        <ele>951.8425293</ele>
        <time>2011-03-27T09:28:19Z</time>
      </trkpt>
      <trkpt lat="43.72537" lon="6.8586">
        <ele>960.0136719</ele>
        <time>2011-03-27T09:28:27Z</time>
      </trkpt>
      <trkpt lat="43.72527" lon="6.85846">
        <ele>960.0136719</ele>
        <time>2011-03-27T09:28:35Z</time>
      </trkpt>
      <trkpt lat="43.72518" lon="6.8583">
        <ele>965.3010254</ele>
        <time>2011-03-27T09:28:44Z</time>
      </trkpt>
      <trkpt lat="43.72509" lon="6.85818">
        <ele>965.3010254</ele>
        <time>2011-03-27T09:28:53Z</time>
      </trkpt>
      <trkpt lat="43.72502" lon="6.85804">
        <ele>965.7817383</ele>
        <time>2011-03-27T09:29:01Z</time>
      </trkpt>
      <trkpt lat="43.72496" lon="6.85791">
        <ele>963.378418</ele>
        <time>2011-03-27T09:29:07Z</time>
      </trkpt>
      <trkpt lat="43.72492" lon="6.85783">
        <ele>965.3010254</ele>
        <time>2011-03-27T09:29:12Z</time>
      </trkpt>
      <trkpt lat="43.72487" lon="6.85774">
        <ele>965.3010254</ele>
        <time>2011-03-27T09:29:18Z</time>
      </trkpt>
      <trkpt lat="43.72482" lon="6.85758">
        <ele>966.262207</ele>
        <time>2011-03-27T09:29:27Z</time>
      </trkpt>
      <trkpt lat="43.72477" lon="6.85747">
        <ele>969.6269531</ele>
        <time>2011-03-27T09:29:34Z</time>
      </trkpt>
      <trkpt lat="43.72471" lon="6.85737">
        <ele>973.4724121</ele>
        <time>2011-03-27T09:29:42Z</time>
      </trkpt>
      <trkpt lat="43.72467" lon="6.85727">
        <ele>972.5109863</ele>
        <time>2011-03-27T09:29:48Z</time>
      </trkpt>
      <trkpt lat="43.72461" lon="6.85711">
        <ele>973.4724121</ele>
        <time>2011-03-27T09:29:56Z</time>
      </trkpt>
      <trkpt lat="43.72458" lon="6.85705">
        <ele>978.2788086</ele>
        <time>2011-03-27T09:30:00Z</time>
      </trkpt>
      <trkpt lat="43.72453" lon="6.85689">
        <ele>979.7207031</ele>
        <time>2011-03-27T09:30:07Z</time>
      </trkpt>
      <trkpt lat="43.72449" lon="6.85677">
        <ele>981.6433105</ele>
        <time>2011-03-27T09:30:13Z</time>
      </trkpt>
      <trkpt lat="43.72447" lon="6.85665">
        <ele>982.1240234</ele>
        <time>2011-03-27T09:30:18Z</time>
      </trkpt>
      <trkpt lat="43.72444" lon="6.85649">
        <ele>982.1240234</ele>
        <time>2011-03-27T09:30:25Z</time>
      </trkpt>
      <trkpt lat="43.72442" lon="6.85637">
        <ele>985.0080566</ele>
        <time>2011-03-27T09:30:32Z</time>
      </trkpt>
      <trkpt lat="43.72442" lon="6.85636">
        <ele>986.4499512</ele>
        <time>2011-03-27T09:30:33Z</time>
      </trkpt>
      <trkpt lat="43.72437" lon="6.85623">
        <ele>989.3339844</ele>
        <time>2011-03-27T09:30:40Z</time>
      </trkpt>
      <trkpt lat="43.72436" lon="6.85617">
        <ele>994.140625</ele>
        <time>2011-03-27T09:30:44Z</time>
      </trkpt>
      <trkpt lat="43.72433" lon="6.85598">
        <ele>991.7373047</ele>
        <time>2011-03-27T09:30:52Z</time>
      </trkpt>
      <trkpt lat="43.72433" lon="6.85583">
        <ele>988.3728027</ele>
        <time>2011-03-27T09:30:58Z</time>
      </trkpt>
      <trkpt lat="43.72434" lon="6.85568">
        <ele>986.4499512</ele>
        <time>2011-03-27T09:31:04Z</time>
      </trkpt>
      <trkpt lat="43.72433" lon="6.85553">
        <ele>985.4885254</ele>
        <time>2011-03-27T09:31:10Z</time>
      </trkpt>
      <trkpt lat="43.72433" lon="6.85551">
        <ele>985.0080566</ele>
        <time>2011-03-27T09:31:11Z</time>
      </trkpt>
      <trkpt lat="43.72433" lon="6.85537">
        <ele>985.4885254</ele>
        <time>2011-03-27T09:31:18Z</time>
      </trkpt>
      <trkpt lat="43.72432" lon="6.85531">
        <ele>985.9692383</ele>
        <time>2011-03-27T09:31:21Z</time>
      </trkpt>
      <trkpt lat="43.7243" lon="6.85516">
        <ele>987.4111328</ele>
        <time>2011-03-27T09:31:28Z</time>
      </trkpt>
      <trkpt lat="43.7243" lon="6.85497">
        <ele>991.2565918</ele>
        <time>2011-03-27T09:31:38Z</time>
      </trkpt>
      <trkpt lat="43.7243" lon="6.85487">
        <ele>991.2565918</ele>
        <time>2011-03-27T09:31:44Z</time>
      </trkpt>
      <trkpt lat="43.72427" lon="6.85473">
        <ele>997.0244141</ele>
        <time>2011-03-27T09:31:51Z</time>
      </trkpt>
      <trkpt lat="43.72424" lon="6.85458">
        <ele>999.4277344</ele>
        <time>2011-03-27T09:31:57Z</time>
      </trkpt>
      <trkpt lat="43.7242" lon="6.85446">
        <ele>998.4663086</ele>
        <time>2011-03-27T09:32:03Z</time>
      </trkpt>
      <trkpt lat="43.72418" lon="6.85443">
        <ele>1000.3891602</ele>
        <time>2011-03-27T09:32:05Z</time>
      </trkpt>
      <trkpt lat="43.72414" lon="6.85431">
        <ele>1000.8696289</ele>
        <time>2011-03-27T09:32:11Z</time>
      </trkpt>
      <trkpt lat="43.72413" lon="6.85421">
        <ele>1002.3115234</ele>
        <time>2011-03-27T09:32:16Z</time>
      </trkpt>
      <trkpt lat="43.72413" lon="6.85405">
        <ele>1002.7922363</ele>
        <time>2011-03-27T09:32:23Z</time>
      </trkpt>
      <trkpt lat="43.72413" lon="6.85392">
        <ele>1004.2346191</ele>
        <time>2011-03-27T09:32:28Z</time>
      </trkpt>
      <trkpt lat="43.72414" lon="6.85385">
        <ele>1006.6376953</ele>
        <time>2011-03-27T09:32:32Z</time>
      </trkpt>
      <trkpt lat="43.72418" lon="6.85377">
        <ele>1002.7922363</ele>
        <time>2011-03-27T09:32:38Z</time>
      </trkpt>
      <trkpt lat="43.72421" lon="6.85362">
        <ele>1001.8310547</ele>
        <time>2011-03-27T09:32:46Z</time>
      </trkpt>
      <trkpt lat="43.72423" lon="6.8535">
        <ele>1001.3503418</ele>
        <time>2011-03-27T09:32:52Z</time>
      </trkpt>
      <trkpt lat="43.72425" lon="6.85338">
        <ele>1003.7536621</ele>
        <time>2011-03-27T09:32:58Z</time>
      </trkpt>
      <trkpt lat="43.72423" lon="6.85335">
        <ele>1005.1958008</ele>
        <time>2011-03-27T09:33:00Z</time>
      </trkpt>
      <trkpt lat="43.72416" lon="6.85333">
        <ele>1007.1184082</ele>
        <time>2011-03-27T09:33:05Z</time>
      </trkpt>
      <trkpt lat="43.72401" lon="6.8534">
        <ele>1007.1184082</ele>
        <time>2011-03-27T09:33:12Z</time>
      </trkpt>
      <trkpt lat="43.72385" lon="6.85354">
        <ele>1007.5991211</ele>
        <time>2011-03-27T09:33:18Z</time>
      </trkpt>
      <trkpt lat="43.72369" lon="6.85362">
        <ele>1007.5991211</ele>
        <time>2011-03-27T09:33:22Z</time>
      </trkpt>
      <trkpt lat="43.72359" lon="6.85361">
        <ele>1008.079834</ele>
        <time>2011-03-27T09:33:26Z</time>
      </trkpt>
      <trkpt lat="43.72345" lon="6.85356">
        <ele>1009.0410156</ele>
        <time>2011-03-27T09:33:33Z</time>
      </trkpt>
      <trkpt lat="43.7233" lon="6.85348">
        <ele>1010.4829102</ele>
        <time>2011-03-27T09:33:41Z</time>
      </trkpt>
      <trkpt lat="43.72318" lon="6.85338">
        <ele>1010.963623</ele>
        <time>2011-03-27T09:33:50Z</time>
      </trkpt>
      <trkpt lat="43.72308" lon="6.85328">
        <ele>1013.3669434</ele>
        <time>2011-03-27T09:33:58Z</time>
      </trkpt>
      <trkpt lat="43.72302" lon="6.85322">
        <ele>1014.328125</ele>
        <time>2011-03-27T09:34:03Z</time>
      </trkpt>
      <trkpt lat="43.72294" lon="6.85311">
        <ele>1016.7314453</ele>
        <time>2011-03-27T09:34:11Z</time>
      </trkpt>
      <trkpt lat="43.72286" lon="6.85301">
        <ele>1018.6540527</ele>
        <time>2011-03-27T09:34:19Z</time>
      </trkpt>
      <trkpt lat="43.72285" lon="6.853">
        <ele>1019.1347656</ele>
        <time>2011-03-27T09:34:20Z</time>
      </trkpt>
      <trkpt lat="43.72276" lon="6.85291">
        <ele>1021.5380859</ele>
        <time>2011-03-27T09:34:27Z</time>
      </trkpt>
      <trkpt lat="43.72268" lon="6.8528">
        <ele>1023.4609375</ele>
        <time>2011-03-27T09:34:35Z</time>
      </trkpt>
      <trkpt lat="43.72261" lon="6.85271">
        <ele>1025.3833008</ele>
        <time>2011-03-27T09:34:42Z</time>
      </trkpt>
      <trkpt lat="43.72252" lon="6.85256">
        <ele>1027.3061523</ele>
        <time>2011-03-27T09:34:52Z</time>
      </trkpt>
      <trkpt lat="43.72244" lon="6.85242">
        <ele>1030.1899414</ele>
        <time>2011-03-27T09:35:02Z</time>
      </trkpt>
      <trkpt lat="43.72243" lon="6.85239">
        <ele>1030.1899414</ele>
        <time>2011-03-27T09:35:04Z</time>
      </trkpt>
      <trkpt lat="43.72238" lon="6.85234">
        <ele>1031.6318359</ele>
        <time>2011-03-27T09:35:08Z</time>
      </trkpt>
      <trkpt lat="43.72231" lon="6.85219">
        <ele>1033.5544434</ele>
        <time>2011-03-27T09:35:17Z</time>
      </trkpt>
      <trkpt lat="43.72226" lon="6.85208">
        <ele>1034.996582</ele>
        <time>2011-03-27T09:35:24Z</time>
      </trkpt>
      <trkpt lat="43.72222" lon="6.85198">
        <ele>1036.4387207</ele>
        <time>2011-03-27T09:35:30Z</time>
      </trkpt>
      <trkpt lat="43.72217" lon="6.85189">
        <ele>1037.3999023</ele>
        <time>2011-03-27T09:35:36Z</time>
      </trkpt>
      <trkpt lat="43.72217" lon="6.85189">
        <ele>1037.3999023</ele>
        <time>2011-03-27T09:35:36Z</time>
      </trkpt>
      <trkpt lat="43.72213" lon="6.85179">
        <ele>1038.3613281</ele>
        <time>2011-03-27T09:35:42Z</time>
      </trkpt>
      <trkpt lat="43.72207" lon="6.85166">
        <ele>1038.842041</ele>
        <time>2011-03-27T09:35:50Z</time>
      </trkpt>
      <trkpt lat="43.72202" lon="6.85156">
        <ele>1038.842041</ele>
        <time>2011-03-27T09:35:56Z</time>
      </trkpt>
      <trkpt lat="43.72197" lon="6.85143">
        <ele>1039.3225098</ele>
        <time>2011-03-27T09:36:03Z</time>
      </trkpt>
      <trkpt lat="43.72191" lon="6.85129">
        <ele>1041.2451172</ele>
        <time>2011-03-27T09:36:11Z</time>
      </trkpt>
      <trkpt lat="43.72186" lon="6.85118">
        <ele>1042.206543</ele>
        <time>2011-03-27T09:36:18Z</time>
      </trkpt>
      <trkpt lat="43.72181" lon="6.85107">
        <ele>1042.206543</ele>
        <time>2011-03-27T09:36:25Z</time>
      </trkpt>
      <trkpt lat="43.72175" lon="6.85093">
        <ele>1041.2451172</ele>
        <time>2011-03-27T09:36:33Z</time>
      </trkpt>
      <trkpt lat="43.7217" lon="6.85081">
        <ele>1042.206543</ele>
        <time>2011-03-27T09:36:40Z</time>
      </trkpt>
      <trkpt lat="43.72164" lon="6.85068">
        <ele>1043.1677246</ele>
        <time>2011-03-27T09:36:48Z</time>
      </trkpt>
      <trkpt lat="43.72158" lon="6.85057">
        <ele>1044.1291504</ele>
        <time>2011-03-27T09:36:55Z</time>
      </trkpt>
      <trkpt lat="43.72153" lon="6.85049">
        <ele>1045.090332</ele>
        <time>2011-03-27T09:37:00Z</time>
      </trkpt>
      <trkpt lat="43.72146" lon="6.85038">
        <ele>1046.5324707</ele>
        <time>2011-03-27T09:37:07Z</time>
      </trkpt>
      <trkpt lat="43.72138" lon="6.85024">
        <ele>1047.9743652</ele>
        <time>2011-03-27T09:37:16Z</time>
      </trkpt>
      <trkpt lat="43.72131" lon="6.85009">
        <ele>1048.9355469</ele>
        <time>2011-03-27T09:37:24Z</time>
      </trkpt>
      <trkpt lat="43.72125" lon="6.84995">
        <ele>1049.8969727</ele>
        <time>2011-03-27T09:37:32Z</time>
      </trkpt>
      <trkpt lat="43.72122" lon="6.84981">
        <ele>1050.3776855</ele>
        <time>2011-03-27T09:37:40Z</time>
      </trkpt>
      <trkpt lat="43.72118" lon="6.84966">
        <ele>1051.3388672</ele>
        <time>2011-03-27T09:37:47Z</time>
      </trkpt>
      <trkpt lat="43.72113" lon="6.84946">
        <ele>1053.2617188</ele>
        <time>2011-03-27T09:37:56Z</time>
      </trkpt>
      <trkpt lat="43.7211" lon="6.84931">
        <ele>1054.2231445</ele>
        <time>2011-03-27T09:38:03Z</time>
      </trkpt>
      <trkpt lat="43.72109" lon="6.84924">
        <ele>1055.1843262</ele>
        <time>2011-03-27T09:38:07Z</time>
      </trkpt>
      <trkpt lat="43.72106" lon="6.84908">
        <ele>1056.6262207</ele>
        <time>2011-03-27T09:38:15Z</time>
      </trkpt>
      <trkpt lat="43.72104" lon="6.84895">
        <ele>1057.5876465</ele>
        <time>2011-03-27T09:38:22Z</time>
      </trkpt>
      <trkpt lat="43.72102" lon="6.84882">
        <ele>1058.0683594</ele>
        <time>2011-03-27T09:38:28Z</time>
      </trkpt>
      <trkpt lat="43.72101" lon="6.84867">
        <ele>1058.5488281</ele>
        <time>2011-03-27T09:38:35Z</time>
      </trkpt>
      <trkpt lat="43.72099" lon="6.8485">
        <ele>1059.9907227</ele>
        <time>2011-03-27T09:38:43Z</time>
      </trkpt>
      <trkpt lat="43.72097" lon="6.84833">
        <ele>1059.9907227</ele>
        <time>2011-03-27T09:38:51Z</time>
      </trkpt>
      <trkpt lat="43.72096" lon="6.8482">
        <ele>1060.4714355</ele>
        <time>2011-03-27T09:38:57Z</time>
      </trkpt>
      <trkpt lat="43.72096" lon="6.84804">
        <ele>1061.4328613</ele>
        <time>2011-03-27T09:39:05Z</time>
      </trkpt>
      <trkpt lat="43.72097" lon="6.8479">
        <ele>1062.394043</ele>
        <time>2011-03-27T09:39:12Z</time>
      </trkpt>
      <trkpt lat="43.72096" lon="6.84775">
        <ele>1062.394043</ele>
        <time>2011-03-27T09:39:20Z</time>
      </trkpt>
      <trkpt lat="43.72094" lon="6.84758">
        <ele>1062.394043</ele>
        <time>2011-03-27T09:39:28Z</time>
      </trkpt>
      <trkpt lat="43.72094" lon="6.8474">
        <ele>1064.3166504</ele>
        <time>2011-03-27T09:39:36Z</time>
      </trkpt>
      <trkpt lat="43.72093" lon="6.84722">
        <ele>1065.2780762</ele>
        <time>2011-03-27T09:39:43Z</time>
      </trkpt>
      <trkpt lat="43.72092" lon="6.84704">
        <ele>1064.7973633</ele>
        <time>2011-03-27T09:39:50Z</time>
      </trkpt>
      <trkpt lat="43.72092" lon="6.84683">
        <ele>1065.2780762</ele>
        <time>2011-03-27T09:39:57Z</time>
      </trkpt>
      <trkpt lat="43.72092" lon="6.84663">
        <ele>1067.2006836</ele>
        <time>2011-03-27T09:40:05Z</time>
      </trkpt>
      <trkpt lat="43.72092" lon="6.84646">
        <ele>1068.1621094</ele>
        <time>2011-03-27T09:40:12Z</time>
      </trkpt>
      <trkpt lat="43.72092" lon="6.84629">
        <ele>1069.604248</ele>
        <time>2011-03-27T09:40:20Z</time>
      </trkpt>
      <trkpt lat="43.72092" lon="6.84615">
        <ele>1071.0461426</ele>
        <time>2011-03-27T09:40:26Z</time>
      </trkpt>
      <trkpt lat="43.72092" lon="6.84599">
        <ele>1072.0073242</ele>
        <time>2011-03-27T09:40:34Z</time>
      </trkpt>
      <trkpt lat="43.72091" lon="6.8458">
        <ele>1073.4494629</ele>
        <time>2011-03-27T09:40:42Z</time>
      </trkpt>
      <trkpt lat="43.72091" lon="6.84565">
        <ele>1074.8913574</ele>
        <time>2011-03-27T09:40:49Z</time>
      </trkpt>
      <trkpt lat="43.7209" lon="6.84555">
        <ele>1075.8525391</ele>
        <time>2011-03-27T09:40:53Z</time>
      </trkpt>
      <trkpt lat="43.72088" lon="6.84534">
        <ele>1076.333252</ele>
        <time>2011-03-27T09:41:02Z</time>
      </trkpt>
      <trkpt lat="43.72088" lon="6.84516">
        <ele>1078.7365723</ele>
        <time>2011-03-27T09:41:09Z</time>
      </trkpt>
      <trkpt lat="43.72089" lon="6.84498">
        <ele>1078.7365723</ele>
        <time>2011-03-27T09:41:17Z</time>
      </trkpt>
      <trkpt lat="43.72089" lon="6.84481">
        <ele>1078.2558594</ele>
        <time>2011-03-27T09:41:24Z</time>
      </trkpt>
      <trkpt lat="43.7209" lon="6.84461">
        <ele>1079.217041</ele>
        <time>2011-03-27T09:41:31Z</time>
      </trkpt>
      <trkpt lat="43.72091" lon="6.84439">
        <ele>1080.1784668</ele>
        <time>2011-03-27T09:41:38Z</time>
      </trkpt>
      <trkpt lat="43.72091" lon="6.84414">
        <ele>1081.6203613</ele>
        <time>2011-03-27T09:41:45Z</time>
      </trkpt>
      <trkpt lat="43.72094" lon="6.84387">
        <ele>1080.6591797</ele>
        <time>2011-03-27T09:41:53Z</time>
      </trkpt>
      <trkpt lat="43.72097" lon="6.8436">
        <ele>1081.6203613</ele>
        <time>2011-03-27T09:42:01Z</time>
      </trkpt>
      <trkpt lat="43.72098" lon="6.84339">
        <ele>1083.0622559</ele>
        <time>2011-03-27T09:42:08Z</time>
      </trkpt>
      <trkpt lat="43.72099" lon="6.84328">
        <ele>1083.5429688</ele>
        <time>2011-03-27T09:42:12Z</time>
      </trkpt>
      <trkpt lat="43.72102" lon="6.84328">
        <ele>1086.4272461</ele>
        <time>2011-03-27T09:42:16Z</time>
      </trkpt>
      <trkpt lat="43.72102" lon="6.8433">
        <ele>1086.9077148</ele>
        <time>2011-03-27T09:42:17Z</time>
      </trkpt>
      <trkpt lat="43.72102" lon="6.8433">
        <ele>1087.8691406</ele>
        <time>2011-03-27T09:42:20Z</time>
      </trkpt>
      <trkpt lat="43.72101" lon="6.84331">
        <ele>1089.791748</ele>
        <time>2011-03-27T09:42:23Z</time>
      </trkpt>
      <trkpt lat="43.72098" lon="6.84332">
        <ele>1095.0788574</ele>
        <time>2011-03-27T09:42:55Z</time>
      </trkpt>
      <trkpt lat="43.72098" lon="6.84346">
        <ele>1096.0402832</ele>
        <time>2011-03-27T09:43:02Z</time>
      </trkpt>
      <trkpt lat="43.72099" lon="6.84361">
        <ele>1097.0014648</ele>
        <time>2011-03-27T09:43:09Z</time>
      </trkpt>
      <trkpt lat="43.721" lon="6.84376">
        <ele>1097.4821777</ele>
        <time>2011-03-27T09:43:16Z</time>
      </trkpt>
      <trkpt lat="43.72102" lon="6.84398">
        <ele>1099.4047852</ele>
        <time>2011-03-27T09:43:26Z</time>
      </trkpt>
      <trkpt lat="43.72104" lon="6.84418">
        <ele>1101.8083496</ele>
        <time>2011-03-27T09:43:34Z</time>
      </trkpt>
      <trkpt lat="43.72106" lon="6.84437">
        <ele>1103.2502441</ele>
        <time>2011-03-27T09:43:42Z</time>
      </trkpt>
      <trkpt lat="43.7211" lon="6.8446">
        <ele>1104.6921387</ele>
        <time>2011-03-27T09:43:51Z</time>
      </trkpt>
      <trkpt lat="43.72115" lon="6.84477">
        <ele>1106.6147461</ele>
        <time>2011-03-27T09:43:59Z</time>
      </trkpt>
      <trkpt lat="43.7212" lon="6.84492">
        <ele>1106.6147461</ele>
        <time>2011-03-27T09:44:06Z</time>
      </trkpt>
      <trkpt lat="43.72124" lon="6.84506">
        <ele>1107.5761719</ele>
        <time>2011-03-27T09:44:14Z</time>
      </trkpt>
      <trkpt lat="43.72127" lon="6.84519">
        <ele>1109.0180664</ele>
        <time>2011-03-27T09:44:21Z</time>
      </trkpt>
      <trkpt lat="43.7213" lon="6.8453">
        <ele>1110.4599609</ele>
        <time>2011-03-27T09:44:27Z</time>
      </trkpt>
      <trkpt lat="43.72134" lon="6.84543">
        <ele>1111.9020996</ele>
        <time>2011-03-27T09:44:35Z</time>
      </trkpt>
      <trkpt lat="43.72137" lon="6.84555">
        <ele>1112.8632813</ele>
        <time>2011-03-27T09:44:42Z</time>
      </trkpt>
      <trkpt lat="43.7214" lon="6.84566">
        <ele>1113.8244629</ele>
        <time>2011-03-27T09:44:48Z</time>
      </trkpt>
      <trkpt lat="43.72143" lon="6.8458">
        <ele>1115.2666016</ele>
        <time>2011-03-27T09:44:56Z</time>
      </trkpt>
      <trkpt lat="43.72147" lon="6.84593">
        <ele>1117.1894531</ele>
        <time>2011-03-27T09:45:03Z</time>
      </trkpt>
      <trkpt lat="43.72151" lon="6.84609">
        <ele>1118.1506348</ele>
        <time>2011-03-27T09:45:11Z</time>
      </trkpt>
      <trkpt lat="43.72155" lon="6.84618">
        <ele>1119.5927734</ele>
        <time>2011-03-27T09:45:16Z</time>
      </trkpt>
      <trkpt lat="43.72157" lon="6.84632">
        <ele>1121.5151367</ele>
        <time>2011-03-27T09:45:23Z</time>
      </trkpt>
      <trkpt lat="43.72159" lon="6.84642">
        <ele>1121.9958496</ele>
        <time>2011-03-27T09:45:28Z</time>
      </trkpt>
      <trkpt lat="43.72159" lon="6.84642">
        <ele>1121.9958496</ele>
        <time>2011-03-27T09:45:28Z</time>
      </trkpt>
      <trkpt lat="43.7216" lon="6.84646">
        <ele>1122.4765625</ele>
        <time>2011-03-27T09:45:30Z</time>
      </trkpt>
      <trkpt lat="43.72163" lon="6.84659">
        <ele>1124.3991699</ele>
        <time>2011-03-27T09:45:37Z</time>
      </trkpt>
      <trkpt lat="43.72167" lon="6.84673">
        <ele>1125.8410645</ele>
        <time>2011-03-27T09:45:45Z</time>
      </trkpt>
      <trkpt lat="43.72171" lon="6.84687">
        <ele>1127.2832031</ele>
        <time>2011-03-27T09:45:53Z</time>
      </trkpt>
      <trkpt lat="43.72176" lon="6.84707">
        <ele>1128.2443848</ele>
        <time>2011-03-27T09:46:03Z</time>
      </trkpt>
      <trkpt lat="43.7218" lon="6.84721">
        <ele>1129.6862793</ele>
        <time>2011-03-27T09:46:11Z</time>
      </trkpt>
      <trkpt lat="43.72186" lon="6.84738">
        <ele>1129.6862793</ele>
        <time>2011-03-27T09:46:20Z</time>
      </trkpt>
      <trkpt lat="43.72191" lon="6.84752">
        <ele>1130.1669922</ele>
        <time>2011-03-27T09:46:28Z</time>
      </trkpt>
      <trkpt lat="43.72194" lon="6.84765">
        <ele>1132.0898438</ele>
        <time>2011-03-27T09:46:35Z</time>
      </trkpt>
      <trkpt lat="43.72199" lon="6.84779">
        <ele>1131.6088867</ele>
        <time>2011-03-27T09:46:43Z</time>
      </trkpt>
      <trkpt lat="43.72205" lon="6.84795">
        <ele>1131.128418</ele>
        <time>2011-03-27T09:46:52Z</time>
      </trkpt>
      <trkpt lat="43.72211" lon="6.84807">
        <ele>1131.128418</ele>
        <time>2011-03-27T09:46:59Z</time>
      </trkpt>
      <trkpt lat="43.72215" lon="6.84817">
        <ele>1131.6088867</ele>
        <time>2011-03-27T09:47:05Z</time>
      </trkpt>
      <trkpt lat="43.72219" lon="6.84827">
        <ele>1131.128418</ele>
        <time>2011-03-27T09:47:11Z</time>
      </trkpt>
      <trkpt lat="43.72224" lon="6.84839">
        <ele>1132.5705566</ele>
        <time>2011-03-27T09:47:18Z</time>
      </trkpt>
      <trkpt lat="43.7223" lon="6.84852">
        <ele>1133.5317383</ele>
        <time>2011-03-27T09:47:26Z</time>
      </trkpt>
      <trkpt lat="43.72236" lon="6.84868">
        <ele>1135.4543457</ele>
        <time>2011-03-27T09:47:35Z</time>
      </trkpt>
      <trkpt lat="43.7224" lon="6.84878">
        <ele>1137.857666</ele>
        <time>2011-03-27T09:47:41Z</time>
      </trkpt>
      <trkpt lat="43.72245" lon="6.84889">
        <ele>1137.857666</ele>
        <time>2011-03-27T09:47:47Z</time>
      </trkpt>
      <trkpt lat="43.7225" lon="6.84899">
        <ele>1137.3769531</ele>
        <time>2011-03-27T09:47:53Z</time>
      </trkpt>
      <trkpt lat="43.72257" lon="6.8491">
        <ele>1136.4157715</ele>
        <time>2011-03-27T09:48:00Z</time>
      </trkpt>
      <trkpt lat="43.72261" lon="6.84916">
        <ele>1135.9350586</ele>
        <time>2011-03-27T09:48:04Z</time>
      </trkpt>
      <trkpt lat="43.72267" lon="6.84917">
        <ele>1137.3769531</ele>
        <time>2011-03-27T09:48:09Z</time>
      </trkpt>
      <trkpt lat="43.72267" lon="6.84914">
        <ele>1138.3383789</ele>
        <time>2011-03-27T09:48:11Z</time>
      </trkpt>
      <trkpt lat="43.7226" lon="6.849">
        <ele>1140.2609863</ele>
        <time>2011-03-27T09:48:19Z</time>
      </trkpt>
      <trkpt lat="43.72253" lon="6.84889">
        <ele>1142.1835938</ele>
        <time>2011-03-27T09:48:26Z</time>
      </trkpt>
      <trkpt lat="43.72249" lon="6.84873">
        <ele>1145.0673828</ele>
        <time>2011-03-27T09:48:34Z</time>
      </trkpt>
      <trkpt lat="43.72247" lon="6.8486">
        <ele>1146.5095215</ele>
        <time>2011-03-27T09:48:40Z</time>
      </trkpt>
      <trkpt lat="43.72247" lon="6.84842">
        <ele>1148.9128418</ele>
        <time>2011-03-27T09:48:49Z</time>
      </trkpt>
      <trkpt lat="43.72246" lon="6.84827">
        <ele>1150.3549805</ele>
        <time>2011-03-27T09:48:56Z</time>
      </trkpt>
      <trkpt lat="43.72244" lon="6.84814">
        <ele>1151.796875</ele>
        <time>2011-03-27T09:49:03Z</time>
      </trkpt>
      <trkpt lat="43.72243" lon="6.848">
        <ele>1153.2387695</ele>
        <time>2011-03-27T09:49:10Z</time>
      </trkpt>
      <trkpt lat="43.72243" lon="6.84783">
        <ele>1154.6806641</ele>
        <time>2011-03-27T09:49:19Z</time>
      </trkpt>
      <trkpt lat="43.72244" lon="6.84773">
        <ele>1155.161377</ele>
        <time>2011-03-27T09:49:25Z</time>
      </trkpt>
      <trkpt lat="43.72244" lon="6.84761">
        <ele>1155.161377</ele>
        <time>2011-03-27T09:49:32Z</time>
      </trkpt>
      <trkpt lat="43.72244" lon="6.84749">
        <ele>1155.6420898</ele>
        <time>2011-03-27T09:49:39Z</time>
      </trkpt>
      <trkpt lat="43.72244" lon="6.84732">
        <ele>1156.1225586</ele>
        <time>2011-03-27T09:49:48Z</time>
      </trkpt>
      <trkpt lat="43.72244" lon="6.84719">
        <ele>1157.0839844</ele>
        <time>2011-03-27T09:49:55Z</time>
      </trkpt>
      <trkpt lat="43.72244" lon="6.84706">
        <ele>1159.0065918</ele>
        <time>2011-03-27T09:50:02Z</time>
      </trkpt>
      <trkpt lat="43.72245" lon="6.8469">
        <ele>1160.9291992</ele>
        <time>2011-03-27T09:50:11Z</time>
      </trkpt>
      <trkpt lat="43.72245" lon="6.84677">
        <ele>1161.890625</ele>
        <time>2011-03-27T09:50:18Z</time>
      </trkpt>
      <trkpt lat="43.72246" lon="6.84664">
        <ele>1163.3325195</ele>
        <time>2011-03-27T09:50:25Z</time>
      </trkpt>
      <trkpt lat="43.72246" lon="6.84645">
        <ele>1165.2553711</ele>
        <time>2011-03-27T09:50:34Z</time>
      </trkpt>
      <trkpt lat="43.72246" lon="6.84631">
        <ele>1166.6972656</ele>
        <time>2011-03-27T09:50:41Z</time>
      </trkpt>
      <trkpt lat="43.72246" lon="6.84619">
        <ele>1166.2165527</ele>
        <time>2011-03-27T09:50:47Z</time>
      </trkpt>
      <trkpt lat="43.72246" lon="6.84603">
        <ele>1167.1779785</ele>
        <time>2011-03-27T09:50:54Z</time>
      </trkpt>
      <trkpt lat="43.72247" lon="6.84591">
        <ele>1168.1391602</ele>
        <time>2011-03-27T09:51:00Z</time>
      </trkpt>
      <trkpt lat="43.72248" lon="6.84574">
        <ele>1169.1005859</ele>
        <time>2011-03-27T09:51:08Z</time>
      </trkpt>
      <trkpt lat="43.72248" lon="6.84558">
        <ele>1169.5812988</ele>
        <time>2011-03-27T09:51:16Z</time>
      </trkpt>
      <trkpt lat="43.72249" lon="6.84542">
        <ele>1171.0231934</ele>
        <time>2011-03-27T09:51:24Z</time>
      </trkpt>
      <trkpt lat="43.7225" lon="6.84525">
        <ele>1171.984375</ele>
        <time>2011-03-27T09:51:33Z</time>
      </trkpt>
      <trkpt lat="43.7225" lon="6.8451">
        <ele>1174.3876953</ele>
        <time>2011-03-27T09:51:40Z</time>
      </trkpt>
      <trkpt lat="43.72252" lon="6.84498">
        <ele>1175.8295898</ele>
        <time>2011-03-27T09:51:46Z</time>
      </trkpt>
      <trkpt lat="43.72253" lon="6.84481">
        <ele>1178.2329102</ele>
        <time>2011-03-27T09:51:54Z</time>
      </trkpt>
      <trkpt lat="43.72253" lon="6.8447">
        <ele>1181.1171875</ele>
        <time>2011-03-27T09:52:00Z</time>
      </trkpt>
      <trkpt lat="43.72253" lon="6.84464">
        <ele>1182.559082</ele>
        <time>2011-03-27T09:52:03Z</time>
      </trkpt>
      <trkpt lat="43.72256" lon="6.84449">
        <ele>1185.923584</ele>
        <time>2011-03-27T09:52:11Z</time>
      </trkpt>
      <trkpt lat="43.72258" lon="6.84435">
        <ele>1187.8461914</ele>
        <time>2011-03-27T09:52:19Z</time>
      </trkpt>
      <trkpt lat="43.72259" lon="6.84423">
        <ele>1189.2880859</ele>
        <time>2011-03-27T09:52:25Z</time>
      </trkpt>
      <trkpt lat="43.72261" lon="6.84414">
        <ele>1190.2495117</ele>
        <time>2011-03-27T09:52:30Z</time>
      </trkpt>
      <trkpt lat="43.72264" lon="6.84402">
        <ele>1192.652832</ele>
        <time>2011-03-27T09:52:37Z</time>
      </trkpt>
      <trkpt lat="43.72267" lon="6.84386">
        <ele>1194.5751953</ele>
        <time>2011-03-27T09:52:46Z</time>
      </trkpt>
      <trkpt lat="43.7227" lon="6.84371">
        <ele>1196.498291</ele>
        <time>2011-03-27T09:52:54Z</time>
      </trkpt>
      <trkpt lat="43.72271" lon="6.84355">
        <ele>1197.4594727</ele>
        <time>2011-03-27T09:53:02Z</time>
      </trkpt>
      <trkpt lat="43.72274" lon="6.8434">
        <ele>1198.4206543</ele>
        <time>2011-03-27T09:53:10Z</time>
      </trkpt>
      <trkpt lat="43.72279" lon="6.84326">
        <ele>1199.862793</ele>
        <time>2011-03-27T09:53:18Z</time>
      </trkpt>
      <trkpt lat="43.72281" lon="6.84314">
        <ele>1200.8239746</ele>
        <time>2011-03-27T09:53:25Z</time>
      </trkpt>
      <trkpt lat="43.72285" lon="6.84298">
        <ele>1202.2658691</ele>
        <time>2011-03-27T09:53:35Z</time>
      </trkpt>
      <trkpt lat="43.72287" lon="6.84283">
        <ele>1204.1887207</ele>
        <time>2011-03-27T09:53:43Z</time>
      </trkpt>
      <trkpt lat="43.7229" lon="6.84268">
        <ele>1205.6306152</ele>
        <time>2011-03-27T09:53:52Z</time>
      </trkpt>
      <trkpt lat="43.72293" lon="6.84258">
        <ele>1206.111084</ele>
        <time>2011-03-27T09:53:59Z</time>
      </trkpt>
      <trkpt lat="43.72296" lon="6.84246">
        <ele>1207.0725098</ele>
        <time>2011-03-27T09:54:07Z</time>
      </trkpt>
      <trkpt lat="43.72298" lon="6.84235">
        <ele>1208.9951172</ele>
        <time>2011-03-27T09:54:15Z</time>
      </trkpt>
      <trkpt lat="43.72299" lon="6.84225">
        <ele>1209.9562988</ele>
        <time>2011-03-27T09:54:21Z</time>
      </trkpt>
      <trkpt lat="43.72301" lon="6.84219">
        <ele>1210.9177246</ele>
        <time>2011-03-27T09:54:25Z</time>
      </trkpt>
      <trkpt lat="43.72304" lon="6.84209">
        <ele>1211.8791504</ele>
        <time>2011-03-27T09:54:32Z</time>
      </trkpt>
      <trkpt lat="43.72305" lon="6.84204">
        <ele>1211.8791504</ele>
        <time>2011-03-27T09:54:35Z</time>
      </trkpt>
      <trkpt lat="43.72307" lon="6.84194">
        <ele>1213.3212891</ele>
        <time>2011-03-27T09:54:41Z</time>
      </trkpt>
      <trkpt lat="43.72309" lon="6.8418">
        <ele>1214.2824707</ele>
        <time>2011-03-27T09:54:50Z</time>
      </trkpt>
      <trkpt lat="43.7231" lon="6.84171">
        <ele>1214.2824707</ele>
        <time>2011-03-27T09:54:56Z</time>
      </trkpt>
      <trkpt lat="43.72311" lon="6.8416">
        <ele>1215.2438965</ele>
        <time>2011-03-27T09:55:02Z</time>
      </trkpt>
      <trkpt lat="43.72312" lon="6.84148">
        <ele>1216.685791</ele>
        <time>2011-03-27T09:55:09Z</time>
      </trkpt>
      <trkpt lat="43.72314" lon="6.84132">
        <ele>1217.1665039</ele>
        <time>2011-03-27T09:55:18Z</time>
      </trkpt>
      <trkpt lat="43.72316" lon="6.84117">
        <ele>1219.5698242</ele>
        <time>2011-03-27T09:55:26Z</time>
      </trkpt>
      <trkpt lat="43.72318" lon="6.84107">
        <ele>1220.5310059</ele>
        <time>2011-03-27T09:55:32Z</time>
      </trkpt>
      <trkpt lat="43.7232" lon="6.84095">
        <ele>1220.5310059</ele>
        <time>2011-03-27T09:55:39Z</time>
      </trkpt>
      <trkpt lat="43.72321" lon="6.84081">
        <ele>1221.9729004</ele>
        <time>2011-03-27T09:55:47Z</time>
      </trkpt>
      <trkpt lat="43.72323" lon="6.84068">
        <ele>1223.8955078</ele>
        <time>2011-03-27T09:55:54Z</time>
      </trkpt>
      <trkpt lat="43.72325" lon="6.84051">
        <ele>1226.779541</ele>
        <time>2011-03-27T09:56:03Z</time>
      </trkpt>
      <trkpt lat="43.72327" lon="6.84034">
        <ele>1228.7023926</ele>
        <time>2011-03-27T09:56:11Z</time>
      </trkpt>
      <trkpt lat="43.72327" lon="6.84018">
        <ele>1227.7407227</ele>
        <time>2011-03-27T09:56:19Z</time>
      </trkpt>
      <trkpt lat="43.72328" lon="6.84002">
        <ele>1228.2216797</ele>
        <time>2011-03-27T09:56:28Z</time>
      </trkpt>
      <trkpt lat="43.72329" lon="6.8399">
        <ele>1228.7023926</ele>
        <time>2011-03-27T09:56:34Z</time>
      </trkpt>
      <trkpt lat="43.72329" lon="6.83976">
        <ele>1228.7023926</ele>
        <time>2011-03-27T09:56:40Z</time>
      </trkpt>
      <trkpt lat="43.72331" lon="6.83963">
        <ele>1226.779541</ele>
        <time>2011-03-27T09:56:47Z</time>
      </trkpt>
      <trkpt lat="43.72332" lon="6.83956">
        <ele>1228.2216797</ele>
        <time>2011-03-27T09:56:51Z</time>
      </trkpt>
      <trkpt lat="43.72333" lon="6.83938">
        <ele>1230.1442871</ele>
        <time>2011-03-27T09:57:00Z</time>
      </trkpt>
      <trkpt lat="43.72335" lon="6.83926">
        <ele>1231.1057129</ele>
        <time>2011-03-27T09:57:06Z</time>
      </trkpt>
      <trkpt lat="43.72337" lon="6.83911">
        <ele>1233.0280762</ele>
        <time>2011-03-27T09:57:14Z</time>
      </trkpt>
      <trkpt lat="43.72338" lon="6.83898">
        <ele>1234.4702148</ele>
        <time>2011-03-27T09:57:21Z</time>
      </trkpt>
      <trkpt lat="43.72339" lon="6.83885">
        <ele>1235.9121094</ele>
        <time>2011-03-27T09:57:28Z</time>
      </trkpt>
      <trkpt lat="43.7234" lon="6.8388">
        <ele>1235.4313965</ele>
        <time>2011-03-27T09:57:31Z</time>
      </trkpt>
      <trkpt lat="43.72342" lon="6.83861">
        <ele>1235.9121094</ele>
        <time>2011-03-27T09:57:41Z</time>
      </trkpt>
      <trkpt lat="43.72343" lon="6.8385">
        <ele>1235.9121094</ele>
        <time>2011-03-27T09:57:47Z</time>
      </trkpt>
      <trkpt lat="43.72342" lon="6.83838">
        <ele>1236.873291</ele>
        <time>2011-03-27T09:57:53Z</time>
      </trkpt>
      <trkpt lat="43.72342" lon="6.8383">
        <ele>1237.8347168</ele>
        <time>2011-03-27T09:57:58Z</time>
      </trkpt>
      <trkpt lat="43.72343" lon="6.8382">
        <ele>1238.7961426</ele>
        <time>2011-03-27T09:58:04Z</time>
      </trkpt>
      <trkpt lat="43.72344" lon="6.83806">
        <ele>1240.7185059</ele>
        <time>2011-03-27T09:58:12Z</time>
      </trkpt>
      <trkpt lat="43.72345" lon="6.83796">
        <ele>1241.6799316</ele>
        <time>2011-03-27T09:58:18Z</time>
      </trkpt>
      <trkpt lat="43.72347" lon="6.83782">
        <ele>1242.6413574</ele>
        <time>2011-03-27T09:58:25Z</time>
      </trkpt>
      <trkpt lat="43.72349" lon="6.83772">
        <ele>1243.1218262</ele>
        <time>2011-03-27T09:58:31Z</time>
      </trkpt>
      <trkpt lat="43.72353" lon="6.83755">
        <ele>1244.0834961</ele>
        <time>2011-03-27T09:58:39Z</time>
      </trkpt>
      <trkpt lat="43.72356" lon="6.83743">
        <ele>1244.5639648</ele>
        <time>2011-03-27T09:58:45Z</time>
      </trkpt>
      <trkpt lat="43.7236" lon="6.83724">
        <ele>1245.0446777</ele>
        <time>2011-03-27T09:58:53Z</time>
      </trkpt>
      <trkpt lat="43.72364" lon="6.83706">
        <ele>1245.5253906</ele>
        <time>2011-03-27T09:59:00Z</time>
      </trkpt>
      <trkpt lat="43.72368" lon="6.8369">
        <ele>1245.5253906</ele>
        <time>2011-03-27T09:59:07Z</time>
      </trkpt>
      <trkpt lat="43.72369" lon="6.83688">
        <ele>1245.5253906</ele>
        <time>2011-03-27T09:59:08Z</time>
      </trkpt>
      <trkpt lat="43.72376" lon="6.83687">
        <ele>1246.9672852</ele>
        <time>2011-03-27T09:59:13Z</time>
      </trkpt>
      <trkpt lat="43.72377" lon="6.83695">
        <ele>1247.447998</ele>
        <time>2011-03-27T09:59:17Z</time>
      </trkpt>
      <trkpt lat="43.72371" lon="6.8371">
        <ele>1248.4091797</ele>
        <time>2011-03-27T09:59:24Z</time>
      </trkpt>
      <trkpt lat="43.72367" lon="6.83728">
        <ele>1249.3706055</ele>
        <time>2011-03-27T09:59:32Z</time>
      </trkpt>
      <trkpt lat="43.72365" lon="6.83743">
        <ele>1250.3320313</ele>
        <time>2011-03-27T09:59:38Z</time>
      </trkpt>
      <trkpt lat="43.72363" lon="6.83761">
        <ele>1250.8125</ele>
        <time>2011-03-27T09:59:45Z</time>
      </trkpt>
      <trkpt lat="43.72363" lon="6.83777">
        <ele>1252.2543945</ele>
        <time>2011-03-27T09:59:52Z</time>
      </trkpt>
      <trkpt lat="43.72365" lon="6.83795">
        <ele>1254.1772461</ele>
        <time>2011-03-27T10:00:00Z</time>
      </trkpt>
      <trkpt lat="43.72368" lon="6.83811">
        <ele>1256.0996094</ele>
        <time>2011-03-27T10:00:08Z</time>
      </trkpt>
      <trkpt lat="43.72371" lon="6.83826">
        <ele>1258.0224609</ele>
        <time>2011-03-27T10:00:16Z</time>
      </trkpt>
      <trkpt lat="43.72375" lon="6.83845">
        <ele>1260.9064941</ele>
        <time>2011-03-27T10:00:26Z</time>
      </trkpt>
      <trkpt lat="43.72377" lon="6.83864">
        <ele>1261.8679199</ele>
        <time>2011-03-27T10:00:35Z</time>
      </trkpt>
      <trkpt lat="43.7238" lon="6.8388">
        <ele>1259.9448242</ele>
        <time>2011-03-27T10:00:43Z</time>
      </trkpt>
      <trkpt lat="43.7238" lon="6.83882">
        <ele>1259.9448242</ele>
        <time>2011-03-27T10:00:44Z</time>
      </trkpt>
      <trkpt lat="43.72383" lon="6.839">
        <ele>1259.9448242</ele>
        <time>2011-03-27T10:00:53Z</time>
      </trkpt>
      <trkpt lat="43.72384" lon="6.83911">
        <ele>1259.9448242</ele>
        <time>2011-03-27T10:00:59Z</time>
      </trkpt>
      <trkpt lat="43.72386" lon="6.83921">
        <ele>1260.4257813</ele>
        <time>2011-03-27T10:01:05Z</time>
      </trkpt>
      <trkpt lat="43.72387" lon="6.83932">
        <ele>1261.387207</ele>
        <time>2011-03-27T10:01:11Z</time>
      </trkpt>
      <trkpt lat="43.7239" lon="6.83947">
        <ele>1262.3483887</ele>
        <time>2011-03-27T10:01:19Z</time>
      </trkpt>
      <trkpt lat="43.72392" lon="6.8396">
        <ele>1262.8291016</ele>
        <time>2011-03-27T10:01:26Z</time>
      </trkpt>
      <trkpt lat="43.72394" lon="6.8397">
        <ele>1263.3098145</ele>
        <time>2011-03-27T10:01:32Z</time>
      </trkpt>
      <trkpt lat="43.72397" lon="6.83985">
        <ele>1263.3098145</ele>
        <time>2011-03-27T10:01:40Z</time>
      </trkpt>
      <trkpt lat="43.72399" lon="6.83996">
        <ele>1263.3098145</ele>
        <time>2011-03-27T10:01:46Z</time>
      </trkpt>
      <trkpt lat="43.72401" lon="6.84008">
        <ele>1264.751709</ele>
        <time>2011-03-27T10:01:53Z</time>
      </trkpt>
      <trkpt lat="43.72402" lon="6.84017">
        <ele>1265.7131348</ele>
        <time>2011-03-27T10:01:58Z</time>
      </trkpt>
      <trkpt lat="43.72403" lon="6.84025">
        <ele>1266.6743164</ele>
        <time>2011-03-27T10:02:03Z</time>
      </trkpt>
      <trkpt lat="43.72406" lon="6.84041">
        <ele>1269.0776367</ele>
        <time>2011-03-27T10:02:12Z</time>
      </trkpt>
      <trkpt lat="43.72408" lon="6.84053">
        <ele>1270.0388184</ele>
        <time>2011-03-27T10:02:19Z</time>
      </trkpt>
      <trkpt lat="43.7241" lon="6.84066">
        <ele>1271.4807129</ele>
        <time>2011-03-27T10:02:26Z</time>
      </trkpt>
      <trkpt lat="43.72411" lon="6.84077">
        <ele>1271.9614258</ele>
        <time>2011-03-27T10:02:32Z</time>
      </trkpt>
      <trkpt lat="43.72413" lon="6.8409">
        <ele>1273.4035645</ele>
        <time>2011-03-27T10:02:39Z</time>
      </trkpt>
      <trkpt lat="43.72414" lon="6.84102">
        <ele>1274.845459</ele>
        <time>2011-03-27T10:02:46Z</time>
      </trkpt>
      <trkpt lat="43.72416" lon="6.84115">
        <ele>1275.8066406</ele>
        <time>2011-03-27T10:02:54Z</time>
      </trkpt>
      <trkpt lat="43.72418" lon="6.8413">
        <ele>1276.7683105</ele>
        <time>2011-03-27T10:03:03Z</time>
      </trkpt>
      <trkpt lat="43.72418" lon="6.84146">
        <ele>1277.2490234</ele>
        <time>2011-03-27T10:03:11Z</time>
      </trkpt>
      <trkpt lat="43.72419" lon="6.84158">
        <ele>1278.2102051</ele>
        <time>2011-03-27T10:03:17Z</time>
      </trkpt>
      <trkpt lat="43.7242" lon="6.84169">
        <ele>1278.690918</ele>
        <time>2011-03-27T10:03:23Z</time>
      </trkpt>
      <trkpt lat="43.7242" lon="6.84184">
        <ele>1280.1328125</ele>
        <time>2011-03-27T10:03:31Z</time>
      </trkpt>
      <trkpt lat="43.72421" lon="6.842">
        <ele>1281.574707</ele>
        <time>2011-03-27T10:03:39Z</time>
      </trkpt>
      <trkpt lat="43.72421" lon="6.84213">
        <ele>1283.0166016</ele>
        <time>2011-03-27T10:03:46Z</time>
      </trkpt>
      <trkpt lat="43.72421" lon="6.84228">
        <ele>1284.4587402</ele>
        <time>2011-03-27T10:03:54Z</time>
      </trkpt>
      <trkpt lat="43.72421" lon="6.84241">
        <ele>1285.9006348</ele>
        <time>2011-03-27T10:04:02Z</time>
      </trkpt>
      <trkpt lat="43.72421" lon="6.84255">
        <ele>1286.8618164</ele>
        <time>2011-03-27T10:04:10Z</time>
      </trkpt>
      <trkpt lat="43.72422" lon="6.8427">
        <ele>1287.8232422</ele>
        <time>2011-03-27T10:04:18Z</time>
      </trkpt>
      <trkpt lat="43.72422" lon="6.84282">
        <ele>1288.784668</ele>
        <time>2011-03-27T10:04:24Z</time>
      </trkpt>
      <trkpt lat="43.72423" lon="6.84295">
        <ele>1289.7458496</ele>
        <time>2011-03-27T10:04:31Z</time>
      </trkpt>
      <trkpt lat="43.72424" lon="6.84309">
        <ele>1291.1877441</ele>
        <time>2011-03-27T10:04:39Z</time>
      </trkpt>
      <trkpt lat="43.72425" lon="6.84319">
        <ele>1291.668457</ele>
        <time>2011-03-27T10:04:45Z</time>
      </trkpt>
      <trkpt lat="43.72426" lon="6.84332">
        <ele>1293.1105957</ele>
        <time>2011-03-27T10:04:52Z</time>
      </trkpt>
      <trkpt lat="43.72427" lon="6.84343">
        <ele>1293.5913086</ele>
        <time>2011-03-27T10:04:58Z</time>
      </trkpt>
      <trkpt lat="43.72428" lon="6.84356">
        <ele>1294.5524902</ele>
        <time>2011-03-27T10:05:05Z</time>
      </trkpt>
      <trkpt lat="43.7243" lon="6.84369">
        <ele>1295.9946289</ele>
        <time>2011-03-27T10:05:12Z</time>
      </trkpt>
      <trkpt lat="43.72431" lon="6.84372">
        <ele>1295.9946289</ele>
        <time>2011-03-27T10:05:14Z</time>
      </trkpt>
      <trkpt lat="43.72432" lon="6.84384">
        <ele>1296.9558105</ele>
        <time>2011-03-27T10:05:21Z</time>
      </trkpt>
      <trkpt lat="43.72433" lon="6.84399">
        <ele>1298.878418</ele>
        <time>2011-03-27T10:05:29Z</time>
      </trkpt>
      <trkpt lat="43.72435" lon="6.84414">
        <ele>1300.3205566</ele>
        <time>2011-03-27T10:05:37Z</time>
      </trkpt>
      <trkpt lat="43.72436" lon="6.8443">
        <ele>1301.2817383</ele>
        <time>2011-03-27T10:05:46Z</time>
      </trkpt>
      <trkpt lat="43.72438" lon="6.84443">
        <ele>1302.7236328</ele>
        <time>2011-03-27T10:05:53Z</time>
      </trkpt>
      <trkpt lat="43.7244" lon="6.84458">
        <ele>1304.1657715</ele>
        <time>2011-03-27T10:06:01Z</time>
      </trkpt>
      <trkpt lat="43.7244" lon="6.84469">
        <ele>1305.607666</ele>
        <time>2011-03-27T10:06:07Z</time>
      </trkpt>
      <trkpt lat="43.72441" lon="6.84471">
        <ele>1305.607666</ele>
        <time>2011-03-27T10:06:08Z</time>
      </trkpt>
      <trkpt lat="43.72442" lon="6.84482">
        <ele>1307.0495605</ele>
        <time>2011-03-27T10:06:15Z</time>
      </trkpt>
      <trkpt lat="43.72444" lon="6.84497">
        <ele>1308.0112305</ele>
        <time>2011-03-27T10:06:23Z</time>
      </trkpt>
      <trkpt lat="43.72445" lon="6.84508">
        <ele>1308.4916992</ele>
        <time>2011-03-27T10:06:29Z</time>
      </trkpt>
      <trkpt lat="43.72447" lon="6.84525">
        <ele>1310.8950195</ele>
        <time>2011-03-27T10:06:38Z</time>
      </trkpt>
      <trkpt lat="43.72448" lon="6.84539">
        <ele>1313.7788086</ele>
        <time>2011-03-27T10:06:46Z</time>
      </trkpt>
      <trkpt lat="43.72449" lon="6.84546">
        <ele>1315.2209473</ele>
        <time>2011-03-27T10:06:50Z</time>
      </trkpt>
      <trkpt lat="43.72451" lon="6.84558">
        <ele>1315.7016602</ele>
        <time>2011-03-27T10:06:57Z</time>
      </trkpt>
      <trkpt lat="43.72452" lon="6.84563">
        <ele>1316.1821289</ele>
        <time>2011-03-27T10:07:00Z</time>
      </trkpt>
      <trkpt lat="43.72452" lon="6.84566">
        <ele>1316.6628418</ele>
        <time>2011-03-27T10:07:02Z</time>
      </trkpt>
      <trkpt lat="43.72454" lon="6.84579">
        <ele>1318.5854492</ele>
        <time>2011-03-27T10:07:08Z</time>
      </trkpt>
      <trkpt lat="43.72458" lon="6.84589">
        <ele>1319.0661621</ele>
        <time>2011-03-27T10:07:14Z</time>
      </trkpt>
      <trkpt lat="43.72461" lon="6.84597">
        <ele>1320.5080566</ele>
        <time>2011-03-27T10:07:19Z</time>
      </trkpt>
      <trkpt lat="43.72467" lon="6.84609">
        <ele>1322.4306641</ele>
        <time>2011-03-27T10:07:27Z</time>
      </trkpt>
      <trkpt lat="43.72473" lon="6.84617">
        <ele>1322.4306641</ele>
        <time>2011-03-27T10:07:33Z</time>
      </trkpt>
      <trkpt lat="43.7248" lon="6.84624">
        <ele>1323.8725586</ele>
        <time>2011-03-27T10:07:39Z</time>
      </trkpt>
      <trkpt lat="43.72488" lon="6.84622">
        <ele>1324.3535156</ele>
        <time>2011-03-27T10:07:45Z</time>
      </trkpt>
      <trkpt lat="43.7249" lon="6.84619">
        <ele>1324.8342285</ele>
        <time>2011-03-27T10:07:48Z</time>
      </trkpt>
      <trkpt lat="43.72497" lon="6.8461">
        <ele>1325.7954102</ele>
        <time>2011-03-27T10:07:55Z</time>
      </trkpt>
      <trkpt lat="43.72505" lon="6.84601">
        <ele>1327.2375488</ele>
        <time>2011-03-27T10:08:03Z</time>
      </trkpt>
      <trkpt lat="43.72505" lon="6.84601">
        <ele>1326.7568359</ele>
        <time>2011-03-27T10:08:05Z</time>
      </trkpt>
      <trkpt lat="43.72508" lon="6.84599">
        <ele>1326.276123</ele>
        <time>2011-03-27T10:08:09Z</time>
      </trkpt>
      <trkpt lat="43.72512" lon="6.84596">
        <ele>1326.276123</ele>
        <time>2011-03-27T10:08:13Z</time>
      </trkpt>
      <trkpt lat="43.72516" lon="6.84594">
        <ele>1326.276123</ele>
        <time>2011-03-27T10:08:18Z</time>
      </trkpt>
      <trkpt lat="43.72522" lon="6.84591">
        <ele>1327.7180176</ele>
        <time>2011-03-27T10:08:24Z</time>
      </trkpt>
      <trkpt lat="43.72526" lon="6.8459">
        <ele>1329.1599121</ele>
        <time>2011-03-27T10:08:28Z</time>
      </trkpt>
      <trkpt lat="43.72533" lon="6.84589">
        <ele>1330.1213379</ele>
        <time>2011-03-27T10:08:34Z</time>
      </trkpt>
      <trkpt lat="43.72543" lon="6.84587">
        <ele>1332.0439453</ele>
        <time>2011-03-27T10:08:43Z</time>
      </trkpt>
      <trkpt lat="43.72554" lon="6.84585">
        <ele>1333.4858398</ele>
        <time>2011-03-27T10:08:52Z</time>
      </trkpt>
      <trkpt lat="43.72563" lon="6.84583">
        <ele>1334.4472656</ele>
        <time>2011-03-27T10:09:00Z</time>
      </trkpt>
      <trkpt lat="43.72564" lon="6.84582">
        <ele>1334.9279785</ele>
        <time>2011-03-27T10:09:04Z</time>
      </trkpt>
      <trkpt lat="43.72566" lon="6.84583">
        <ele>1335.4084473</ele>
        <time>2011-03-27T10:09:14Z</time>
      </trkpt>
      <trkpt lat="43.72576" lon="6.84578">
        <ele>1335.4084473</ele>
        <time>2011-03-27T10:09:22Z</time>
      </trkpt>
      <trkpt lat="43.72586" lon="6.84572">
        <ele>1335.8891602</ele>
        <time>2011-03-27T10:09:29Z</time>
      </trkpt>
      <trkpt lat="43.72598" lon="6.84563">
        <ele>1337.3310547</ele>
        <time>2011-03-27T10:09:37Z</time>
      </trkpt>
      <trkpt lat="43.72604" lon="6.84553">
        <ele>1338.7731934</ele>
        <time>2011-03-27T10:09:43Z</time>
      </trkpt>
      <trkpt lat="43.72613" lon="6.84532">
        <ele>1340.6958008</ele>
        <time>2011-03-27T10:09:52Z</time>
      </trkpt>
      <trkpt lat="43.72628" lon="6.84519">
        <ele>1343.579834</ele>
        <time>2011-03-27T10:09:59Z</time>
      </trkpt>
      <trkpt lat="43.72635" lon="6.8451">
        <ele>1344.5410156</ele>
        <time>2011-03-27T10:10:04Z</time>
      </trkpt>
      <trkpt lat="43.72646" lon="6.84505">
        <ele>1345.5024414</ele>
        <time>2011-03-27T10:10:09Z</time>
      </trkpt>
      <trkpt lat="43.72661" lon="6.84496">
        <ele>1345.5024414</ele>
        <time>2011-03-27T10:10:16Z</time>
      </trkpt>
      <trkpt lat="43.72676" lon="6.84496">
        <ele>1346.4638672</ele>
        <time>2011-03-27T10:10:21Z</time>
      </trkpt>
      <trkpt lat="43.72697" lon="6.845">
        <ele>1346.4638672</ele>
        <time>2011-03-27T10:10:29Z</time>
      </trkpt>
      <trkpt lat="43.72707" lon="6.845">
        <ele>1345.9831543</ele>
        <time>2011-03-27T10:10:34Z</time>
      </trkpt>
      <trkpt lat="43.72722" lon="6.845">
        <ele>1345.9831543</ele>
        <time>2011-03-27T10:10:39Z</time>
      </trkpt>
      <trkpt lat="43.72741" lon="6.845">
        <ele>1346.4638672</ele>
        <time>2011-03-27T10:10:46Z</time>
      </trkpt>
      <trkpt lat="43.72764" lon="6.84501">
        <ele>1346.9443359</ele>
        <time>2011-03-27T10:10:54Z</time>
      </trkpt>
      <trkpt lat="43.72785" lon="6.84499">
        <ele>1347.9057617</ele>
        <time>2011-03-27T10:11:01Z</time>
      </trkpt>
      <trkpt lat="43.72796" lon="6.84504">
        <ele>1346.9443359</ele>
        <time>2011-03-27T10:11:05Z</time>
      </trkpt>
      <trkpt lat="43.72799" lon="6.84508">
        <ele>1346.9443359</ele>
        <time>2011-03-27T10:11:07Z</time>
      </trkpt>
      <trkpt lat="43.72801" lon="6.84509">
        <ele>1345.9831543</ele>
        <time>2011-03-27T10:11:13Z</time>
      </trkpt>
      <trkpt lat="43.728" lon="6.84511">
        <ele>1345.5024414</ele>
        <time>2011-03-27T10:11:18Z</time>
      </trkpt>
      <trkpt lat="43.72798" lon="6.84509">
        <ele>1344.5410156</ele>
        <time>2011-03-27T10:11:25Z</time>
      </trkpt>
      <trkpt lat="43.72795" lon="6.84508">
        <ele>1344.5410156</ele>
        <time>2011-03-27T10:11:30Z</time>
      </trkpt>
      <trkpt lat="43.728" lon="6.84508">
        <ele>1343.579834</ele>
        <time>2011-03-27T10:11:51Z</time>
      </trkpt>
      <trkpt lat="43.72801" lon="6.84508">
        <ele>1344.0605469</ele>
        <time>2011-03-27T10:11:54Z</time>
      </trkpt>
      <trkpt lat="43.728" lon="6.84507">
        <ele>1345.0217285</ele>
        <time>2011-03-27T10:12:33Z</time>
      </trkpt>
      <trkpt lat="43.728" lon="6.84507">
        <ele>1345.0217285</ele>
        <time>2011-03-27T10:12:34Z</time>
      </trkpt>
      <trkpt lat="43.728" lon="6.84507">
        <ele>1343.0991211</ele>
        <time>2011-03-27T10:12:37Z</time>
      </trkpt>
      <trkpt lat="43.72802" lon="6.84504">
        <ele>1343.0991211</ele>
        <time>2011-03-27T10:12:40Z</time>
      </trkpt>
      <trkpt lat="43.72802" lon="6.84507">
        <ele>1343.0991211</ele>
        <time>2011-03-27T10:12:44Z</time>
      </trkpt>
      <trkpt lat="43.72802" lon="6.8451">
        <ele>1345.5024414</ele>
        <time>2011-03-27T10:12:51Z</time>
      </trkpt>
      <trkpt lat="43.72805" lon="6.84512">
        <ele>1347.9057617</ele>
        <time>2011-03-27T10:13:22Z</time>
      </trkpt>
      <trkpt lat="43.72817" lon="6.84524">
        <ele>1346.4638672</ele>
        <time>2011-03-27T10:13:29Z</time>
      </trkpt>
      <trkpt lat="43.72833" lon="6.84544">
        <ele>1344.5410156</ele>
        <time>2011-03-27T10:13:35Z</time>
      </trkpt>
      <trkpt lat="43.7285" lon="6.8457">
        <ele>1343.0991211</ele>
        <time>2011-03-27T10:13:41Z</time>
      </trkpt>
      <trkpt lat="43.7286" lon="6.84591">
        <ele>1344.0605469</ele>
        <time>2011-03-27T10:13:47Z</time>
      </trkpt>
      <trkpt lat="43.72866" lon="6.84606">
        <ele>1345.9831543</ele>
        <time>2011-03-27T10:13:54Z</time>
      </trkpt>
      <trkpt lat="43.72872" lon="6.84616">
        <ele>1345.0217285</ele>
        <time>2011-03-27T10:13:59Z</time>
      </trkpt>
      <trkpt lat="43.72876" lon="6.84627">
        <ele>1345.0217285</ele>
        <time>2011-03-27T10:14:03Z</time>
      </trkpt>
      <trkpt lat="43.72882" lon="6.84641">
        <ele>1344.5410156</ele>
        <time>2011-03-27T10:14:08Z</time>
      </trkpt>
      <trkpt lat="43.72889" lon="6.84659">
        <ele>1345.5024414</ele>
        <time>2011-03-27T10:14:14Z</time>
      </trkpt>
      <trkpt lat="43.72896" lon="6.84676">
        <ele>1346.4638672</ele>
        <time>2011-03-27T10:14:20Z</time>
      </trkpt>
      <trkpt lat="43.72904" lon="6.84691">
        <ele>1345.5024414</ele>
        <time>2011-03-27T10:14:25Z</time>
      </trkpt>
      <trkpt lat="43.72916" lon="6.84713">
        <ele>1346.4638672</ele>
        <time>2011-03-27T10:14:33Z</time>
      </trkpt>
      <trkpt lat="43.72925" lon="6.84715">
        <ele>1348.8669434</ele>
        <time>2011-03-27T10:14:38Z</time>
      </trkpt>
      <trkpt lat="43.72928" lon="6.84708">
        <ele>1350.7895508</ele>
        <time>2011-03-27T10:14:43Z</time>
      </trkpt>
      <trkpt lat="43.72927" lon="6.84698">
        <ele>1350.7895508</ele>
        <time>2011-03-27T10:14:49Z</time>
      </trkpt>
      <trkpt lat="43.72926" lon="6.84686">
        <ele>1350.7895508</ele>
        <time>2011-03-27T10:14:57Z</time>
      </trkpt>
      <trkpt lat="43.72924" lon="6.84676">
        <ele>1353.673584</ele>
        <time>2011-03-27T10:15:04Z</time>
      </trkpt>
      <trkpt lat="43.72924" lon="6.84675">
        <ele>1354.1542969</ele>
        <time>2011-03-27T10:15:06Z</time>
      </trkpt>
      <trkpt lat="43.72923" lon="6.84668">
        <ele>1357.9997559</ele>
        <time>2011-03-27T10:15:13Z</time>
      </trkpt>
      <trkpt lat="43.72923" lon="6.8466">
        <ele>1358.4802246</ele>
        <time>2011-03-27T10:15:21Z</time>
      </trkpt>
      <trkpt lat="43.72923" lon="6.84652">
        <ele>1359.4416504</ele>
        <time>2011-03-27T10:15:27Z</time>
      </trkpt>
      <trkpt lat="43.72923" lon="6.84648">
        <ele>1359.9221191</ele>
        <time>2011-03-27T10:15:31Z</time>
      </trkpt>
      <trkpt lat="43.72922" lon="6.84641">
        <ele>1361.8449707</ele>
        <time>2011-03-27T10:15:36Z</time>
      </trkpt>
      <trkpt lat="43.72921" lon="6.84635">
        <ele>1364.2480469</ele>
        <time>2011-03-27T10:15:42Z</time>
      </trkpt>
      <trkpt lat="43.72921" lon="6.84632">
        <ele>1365.6901855</ele>
        <time>2011-03-27T10:15:47Z</time>
      </trkpt>
      <trkpt lat="43.7292" lon="6.84619">
        <ele>1365.6901855</ele>
        <time>2011-03-27T10:15:54Z</time>
      </trkpt>
      <trkpt lat="43.72919" lon="6.84607">
        <ele>1365.2094727</ele>
        <time>2011-03-27T10:16:01Z</time>
      </trkpt>
      <trkpt lat="43.72919" lon="6.84595">
        <ele>1363.767334</ele>
        <time>2011-03-27T10:16:08Z</time>
      </trkpt>
      <trkpt lat="43.72919" lon="6.84583">
        <ele>1365.2094727</ele>
        <time>2011-03-27T10:16:14Z</time>
      </trkpt>
      <trkpt lat="43.72918" lon="6.8457">
        <ele>1365.2094727</ele>
        <time>2011-03-27T10:16:21Z</time>
      </trkpt>
      <trkpt lat="43.72915" lon="6.84557">
        <ele>1365.6901855</ele>
        <time>2011-03-27T10:16:28Z</time>
      </trkpt>
      <trkpt lat="43.72912" lon="6.84542">
        <ele>1365.6901855</ele>
        <time>2011-03-27T10:16:36Z</time>
      </trkpt>
      <trkpt lat="43.72907" lon="6.84525">
        <ele>1367.6125488</ele>
        <time>2011-03-27T10:16:44Z</time>
      </trkpt>
      <trkpt lat="43.72903" lon="6.84515">
        <ele>1368.0932617</ele>
        <time>2011-03-27T10:16:49Z</time>
      </trkpt>
      <trkpt lat="43.72897" lon="6.84502">
        <ele>1370.0158691</ele>
        <time>2011-03-27T10:16:56Z</time>
      </trkpt>
      <trkpt lat="43.72892" lon="6.84488">
        <ele>1370.9772949</ele>
        <time>2011-03-27T10:17:04Z</time>
      </trkpt>
      <trkpt lat="43.72886" lon="6.84477">
        <ele>1372.9001465</ele>
        <time>2011-03-27T10:17:11Z</time>
      </trkpt>
      <trkpt lat="43.72881" lon="6.84466">
        <ele>1374.8227539</ele>
        <time>2011-03-27T10:17:18Z</time>
      </trkpt>
      <trkpt lat="43.72874" lon="6.8445">
        <ele>1378.6679688</ele>
        <time>2011-03-27T10:17:28Z</time>
      </trkpt>
      <trkpt lat="43.72874" lon="6.84447">
        <ele>1379.1484375</ele>
        <time>2011-03-27T10:17:30Z</time>
      </trkpt>
      <trkpt lat="43.72873" lon="6.84441">
        <ele>1380.1098633</ele>
        <time>2011-03-27T10:17:34Z</time>
      </trkpt>
      <trkpt lat="43.72872" lon="6.84435">
        <ele>1380.5905762</ele>
        <time>2011-03-27T10:17:38Z</time>
      </trkpt>
      <trkpt lat="43.72871" lon="6.84423">
        <ele>1381.5517578</ele>
        <time>2011-03-27T10:17:46Z</time>
      </trkpt>
      <trkpt lat="43.72873" lon="6.8441">
        <ele>1382.9936523</ele>
        <time>2011-03-27T10:17:54Z</time>
      </trkpt>
      <trkpt lat="43.72873" lon="6.84402">
        <ele>1383.4743652</ele>
        <time>2011-03-27T10:17:59Z</time>
      </trkpt>
      <trkpt lat="43.72874" lon="6.84395">
        <ele>1383.9550781</ele>
        <time>2011-03-27T10:18:03Z</time>
      </trkpt>
      <trkpt lat="43.72875" lon="6.84384">
        <ele>1384.9165039</ele>
        <time>2011-03-27T10:18:10Z</time>
      </trkpt>
      <trkpt lat="43.72876" lon="6.84372">
        <ele>1387.3195801</ele>
        <time>2011-03-27T10:18:18Z</time>
      </trkpt>
      <trkpt lat="43.72877" lon="6.84361">
        <ele>1390.2038574</ele>
        <time>2011-03-27T10:18:24Z</time>
      </trkpt>
      <trkpt lat="43.72876" lon="6.84352">
        <ele>1391.1650391</ele>
        <time>2011-03-27T10:18:30Z</time>
      </trkpt>
      <trkpt lat="43.72875" lon="6.84347">
        <ele>1391.645752</ele>
        <time>2011-03-27T10:18:33Z</time>
      </trkpt>
      <trkpt lat="43.72875" lon="6.84347">
        <ele>1391.645752</ele>
        <time>2011-03-27T10:18:33Z</time>
      </trkpt>
      <trkpt lat="43.72877" lon="6.84336">
        <ele>1392.6071777</ele>
        <time>2011-03-27T10:18:39Z</time>
      </trkpt>
      <trkpt lat="43.72875" lon="6.84324">
        <ele>1395.0102539</ele>
        <time>2011-03-27T10:18:47Z</time>
      </trkpt>
      <trkpt lat="43.72874" lon="6.84311">
        <ele>1396.4523926</ele>
        <time>2011-03-27T10:18:54Z</time>
      </trkpt>
      <trkpt lat="43.72874" lon="6.84297">
        <ele>1397.8942871</ele>
        <time>2011-03-27T10:19:01Z</time>
      </trkpt>
      <trkpt lat="43.72875" lon="6.84284">
        <ele>1397.8942871</ele>
        <time>2011-03-27T10:19:07Z</time>
      </trkpt>
      <trkpt lat="43.72873" lon="6.84269">
        <ele>1398.3747559</ele>
        <time>2011-03-27T10:19:14Z</time>
      </trkpt>
      <trkpt lat="43.7287" lon="6.84256">
        <ele>1398.3747559</ele>
        <time>2011-03-27T10:19:20Z</time>
      </trkpt>
      <trkpt lat="43.72869" lon="6.8424">
        <ele>1399.8168945</ele>
        <time>2011-03-27T10:19:27Z</time>
      </trkpt>
      <trkpt lat="43.72864" lon="6.84226">
        <ele>1400.2976074</ele>
        <time>2011-03-27T10:19:33Z</time>
      </trkpt>
      <trkpt lat="43.72858" lon="6.84205">
        <ele>1399.8168945</ele>
        <time>2011-03-27T10:19:42Z</time>
      </trkpt>
      <trkpt lat="43.72855" lon="6.84187">
        <ele>1402.2199707</ele>
        <time>2011-03-27T10:19:50Z</time>
      </trkpt>
      <trkpt lat="43.7285" lon="6.84176">
        <ele>1403.1813965</ele>
        <time>2011-03-27T10:19:56Z</time>
      </trkpt>
      <trkpt lat="43.72845" lon="6.84159">
        <ele>1404.6235352</ele>
        <time>2011-03-27T10:20:03Z</time>
      </trkpt>
      <trkpt lat="43.72841" lon="6.84145">
        <ele>1406.0654297</ele>
        <time>2011-03-27T10:20:10Z</time>
      </trkpt>
      <trkpt lat="43.72839" lon="6.84131">
        <ele>1407.9882813</ele>
        <time>2011-03-27T10:20:17Z</time>
      </trkpt>
      <trkpt lat="43.72839" lon="6.8412">
        <ele>1407.9882813</ele>
        <time>2011-03-27T10:20:23Z</time>
      </trkpt>
      <trkpt lat="43.72839" lon="6.84118">
        <ele>1407.5075684</ele>
        <time>2011-03-27T10:20:24Z</time>
      </trkpt>
      <trkpt lat="43.72844" lon="6.84118">
        <ele>1407.9882813</ele>
        <time>2011-03-27T10:20:29Z</time>
      </trkpt>
      <trkpt lat="43.72849" lon="6.84126">
        <ele>1409.4301758</ele>
        <time>2011-03-27T10:20:34Z</time>
      </trkpt>
      <trkpt lat="43.72859" lon="6.84143">
        <ele>1411.8334961</ele>
        <time>2011-03-27T10:20:42Z</time>
      </trkpt>
      <trkpt lat="43.72873" lon="6.84161">
        <ele>1410.8720703</ele>
        <time>2011-03-27T10:20:51Z</time>
      </trkpt>
      <trkpt lat="43.72882" lon="6.84169">
        <ele>1411.8334961</ele>
        <time>2011-03-27T10:20:57Z</time>
      </trkpt>
      <trkpt lat="43.72889" lon="6.84179">
        <ele>1411.3527832</ele>
        <time>2011-03-27T10:21:03Z</time>
      </trkpt>
      <trkpt lat="43.72895" lon="6.84188">
        <ele>1409.4301758</ele>
        <time>2011-03-27T10:21:07Z</time>
      </trkpt>
      <trkpt lat="43.729" lon="6.842">
        <ele>1408.46875</ele>
        <time>2011-03-27T10:21:12Z</time>
      </trkpt>
      <trkpt lat="43.72909" lon="6.84221">
        <ele>1409.9106445</ele>
        <time>2011-03-27T10:21:20Z</time>
      </trkpt>
      <trkpt lat="43.72915" lon="6.84236">
        <ele>1408.46875</ele>
        <time>2011-03-27T10:21:26Z</time>
      </trkpt>
      <trkpt lat="43.72922" lon="6.84256">
        <ele>1409.4301758</ele>
        <time>2011-03-27T10:21:32Z</time>
      </trkpt>
      <trkpt lat="43.72931" lon="6.8427">
        <ele>1404.6235352</ele>
        <time>2011-03-27T10:21:37Z</time>
      </trkpt>
      <trkpt lat="43.72937" lon="6.84286">
        <ele>1404.1430664</ele>
        <time>2011-03-27T10:21:43Z</time>
      </trkpt>
      <trkpt lat="43.72941" lon="6.84293">
        <ele>1406.0654297</ele>
        <time>2011-03-27T10:21:48Z</time>
      </trkpt>
      <trkpt lat="43.72944" lon="6.84298">
        <ele>1406.5461426</ele>
        <time>2011-03-27T10:21:52Z</time>
      </trkpt>
      <trkpt lat="43.72946" lon="6.84315">
        <ele>1420.4853516</ele>
        <time>2011-03-27T10:21:59Z</time>
      </trkpt>
      <trkpt lat="43.72952" lon="6.84324">
        <ele>1422.8886719</ele>
        <time>2011-03-27T10:22:04Z</time>
      </trkpt>
      <trkpt lat="43.72956" lon="6.84332">
        <ele>1426.2531738</ele>
        <time>2011-03-27T10:22:09Z</time>
      </trkpt>
      <trkpt lat="43.72961" lon="6.84342">
        <ele>1427.2145996</ele>
        <time>2011-03-27T10:22:15Z</time>
      </trkpt>
      <trkpt lat="43.72966" lon="6.84353">
        <ele>1428.1757813</ele>
        <time>2011-03-27T10:22:22Z</time>
      </trkpt>
      <trkpt lat="43.72972" lon="6.84365">
        <ele>1426.7338867</ele>
        <time>2011-03-27T10:22:28Z</time>
      </trkpt>
      <trkpt lat="43.72979" lon="6.84376">
        <ele>1426.2531738</ele>
        <time>2011-03-27T10:22:35Z</time>
      </trkpt>
      <trkpt lat="43.72984" lon="6.84389">
        <ele>1430.0983887</ele>
        <time>2011-03-27T10:22:43Z</time>
      </trkpt>
      <trkpt lat="43.7299" lon="6.844">
        <ele>1432.501709</ele>
        <time>2011-03-27T10:22:50Z</time>
      </trkpt>
      <trkpt lat="43.72992" lon="6.84404">
        <ele>1433.9436035</ele>
        <time>2011-03-27T10:22:55Z</time>
      </trkpt>
      <trkpt lat="43.72995" lon="6.8441">
        <ele>1435.8662109</ele>
        <time>2011-03-27T10:23:02Z</time>
      </trkpt>
      <trkpt lat="43.73002" lon="6.84421">
        <ele>1439.230957</ele>
        <time>2011-03-27T10:23:12Z</time>
      </trkpt>
      <trkpt lat="43.73009" lon="6.84429">
        <ele>1441.1535645</ele>
        <time>2011-03-27T10:23:21Z</time>
      </trkpt>
      <trkpt lat="43.73017" lon="6.84438">
        <ele>1443.5568848</ele>
        <time>2011-03-27T10:23:32Z</time>
      </trkpt>
      <trkpt lat="43.73023" lon="6.84447">
        <ele>1444.5180664</ele>
        <time>2011-03-27T10:23:41Z</time>
      </trkpt>
      <trkpt lat="43.73028" lon="6.84454">
        <ele>1445.4794922</ele>
        <time>2011-03-27T10:23:48Z</time>
      </trkpt>
      <trkpt lat="43.73032" lon="6.84461">
        <ele>1447.4020996</ele>
        <time>2011-03-27T10:23:57Z</time>
      </trkpt>
      <trkpt lat="43.73035" lon="6.84465">
        <ele>1447.8828125</ele>
        <time>2011-03-27T10:24:03Z</time>
      </trkpt>
      <trkpt lat="43.73037" lon="6.84468">
        <ele>1448.3632813</ele>
        <time>2011-03-27T10:24:11Z</time>
      </trkpt>
      <trkpt lat="43.73041" lon="6.84475">
        <ele>1449.8054199</ele>
        <time>2011-03-27T10:24:20Z</time>
      </trkpt>
      <trkpt lat="43.73042" lon="6.84476">
        <ele>1449.8054199</ele>
        <time>2011-03-27T10:24:21Z</time>
      </trkpt>
      <trkpt lat="43.73049" lon="6.84484">
        <ele>1448.8439941</ele>
        <time>2011-03-27T10:24:29Z</time>
      </trkpt>
      <trkpt lat="43.73054" lon="6.84492">
        <ele>1450.7666016</ele>
        <time>2011-03-27T10:24:38Z</time>
      </trkpt>
      <trkpt lat="43.73054" lon="6.84492">
        <ele>1450.7666016</ele>
        <time>2011-03-27T10:24:40Z</time>
      </trkpt>
      <trkpt lat="43.73056" lon="6.84496">
        <ele>1450.7666016</ele>
        <time>2011-03-27T10:24:49Z</time>
      </trkpt>
      <trkpt lat="43.73061" lon="6.84501">
        <ele>1452.2087402</ele>
        <time>2011-03-27T10:24:57Z</time>
      </trkpt>
      <trkpt lat="43.73065" lon="6.84507">
        <ele>1453.6508789</ele>
        <time>2011-03-27T10:25:06Z</time>
      </trkpt>
      <trkpt lat="43.73066" lon="6.8451">
        <ele>1455.0927734</ele>
        <time>2011-03-27T10:25:11Z</time>
      </trkpt>
      <trkpt lat="43.73067" lon="6.84511">
        <ele>1455.5734863</ele>
        <time>2011-03-27T10:25:14Z</time>
      </trkpt>
      <trkpt lat="43.7307" lon="6.84517">
        <ele>1457.9768066</ele>
        <time>2011-03-27T10:25:21Z</time>
      </trkpt>
      <trkpt lat="43.73073" lon="6.8452">
        <ele>1459.4187012</ele>
        <time>2011-03-27T10:25:27Z</time>
      </trkpt>
      <trkpt lat="43.73076" lon="6.84528">
        <ele>1460.8605957</ele>
        <time>2011-03-27T10:25:35Z</time>
      </trkpt>
      <trkpt lat="43.7308" lon="6.84533">
        <ele>1462.7832031</ele>
        <time>2011-03-27T10:25:43Z</time>
      </trkpt>
      <trkpt lat="43.7308" lon="6.84533">
        <ele>1462.7832031</ele>
        <time>2011-03-27T10:25:45Z</time>
      </trkpt>
      <trkpt lat="43.73082" lon="6.84537">
        <ele>1463.263916</ele>
        <time>2011-03-27T10:25:52Z</time>
      </trkpt>
      <trkpt lat="43.73085" lon="6.84542">
        <ele>1464.2250977</ele>
        <time>2011-03-27T10:25:58Z</time>
      </trkpt>
      <trkpt lat="43.73086" lon="6.84544">
        <ele>1465.1865234</ele>
        <time>2011-03-27T10:26:02Z</time>
      </trkpt>
      <trkpt lat="43.73086" lon="6.8454">
        <ele>1465.6672363</ele>
        <time>2011-03-27T10:26:08Z</time>
      </trkpt>
      <trkpt lat="43.73087" lon="6.84531">
        <ele>1466.628418</ele>
        <time>2011-03-27T10:26:17Z</time>
      </trkpt>
      <trkpt lat="43.73086" lon="6.84523">
        <ele>1467.1091309</ele>
        <time>2011-03-27T10:26:24Z</time>
      </trkpt>
      <trkpt lat="43.73087" lon="6.8451">
        <ele>1468.0705566</ele>
        <time>2011-03-27T10:26:35Z</time>
      </trkpt>
      <trkpt lat="43.73087" lon="6.84501">
        <ele>1469.0319824</ele>
        <time>2011-03-27T10:26:43Z</time>
      </trkpt>
      <trkpt lat="43.73086" lon="6.84493">
        <ele>1469.9931641</ele>
        <time>2011-03-27T10:26:51Z</time>
      </trkpt>
      <trkpt lat="43.73085" lon="6.84482">
        <ele>1471.4350586</ele>
        <time>2011-03-27T10:27:00Z</time>
      </trkpt>
      <trkpt lat="43.73085" lon="6.84474">
        <ele>1472.3964844</ele>
        <time>2011-03-27T10:27:09Z</time>
      </trkpt>
      <trkpt lat="43.73085" lon="6.84474">
        <ele>1472.3964844</ele>
        <time>2011-03-27T10:27:10Z</time>
      </trkpt>
      <trkpt lat="43.73086" lon="6.84467">
        <ele>1472.8771973</ele>
        <time>2011-03-27T10:27:24Z</time>
      </trkpt>
      <trkpt lat="43.73088" lon="6.84461">
        <ele>1472.8771973</ele>
        <time>2011-03-27T10:27:32Z</time>
      </trkpt>
      <trkpt lat="43.73088" lon="6.84451">
        <ele>1473.3579102</ele>
        <time>2011-03-27T10:27:42Z</time>
      </trkpt>
      <trkpt lat="43.73087" lon="6.84443">
        <ele>1474.7998047</ele>
        <time>2011-03-27T10:27:50Z</time>
      </trkpt>
      <trkpt lat="43.73087" lon="6.84437">
        <ele>1476.2416992</ele>
        <time>2011-03-27T10:27:57Z</time>
      </trkpt>
      <trkpt lat="43.73088" lon="6.84428">
        <ele>1481.0483398</ele>
        <time>2011-03-27T10:28:16Z</time>
      </trkpt>
      <trkpt lat="43.73088" lon="6.84421">
        <ele>1482.0095215</ele>
        <time>2011-03-27T10:28:25Z</time>
      </trkpt>
      <trkpt lat="43.73089" lon="6.84411">
        <ele>1483.9321289</ele>
        <time>2011-03-27T10:28:36Z</time>
      </trkpt>
      <trkpt lat="43.73089" lon="6.84406">
        <ele>1485.3742676</ele>
        <time>2011-03-27T10:28:43Z</time>
      </trkpt>
      <trkpt lat="43.73089" lon="6.84405">
        <ele>1485.3742676</ele>
        <time>2011-03-27T10:28:45Z</time>
      </trkpt>
      <trkpt lat="43.73089" lon="6.84401">
        <ele>1486.8161621</ele>
        <time>2011-03-27T10:28:52Z</time>
      </trkpt>
      <trkpt lat="43.73089" lon="6.84394">
        <ele>1489.2194824</ele>
        <time>2011-03-27T10:29:01Z</time>
      </trkpt>
      <trkpt lat="43.73089" lon="6.84387">
        <ele>1490.1809082</ele>
        <time>2011-03-27T10:29:10Z</time>
      </trkpt>
      <trkpt lat="43.7309" lon="6.84381">
        <ele>1490.1809082</ele>
        <time>2011-03-27T10:29:18Z</time>
      </trkpt>
      <trkpt lat="43.7309" lon="6.8437">
        <ele>1492.5842285</ele>
        <time>2011-03-27T10:29:32Z</time>
      </trkpt>
      <trkpt lat="43.73091" lon="6.84363">
        <ele>1494.026123</ele>
        <time>2011-03-27T10:29:40Z</time>
      </trkpt>
      <trkpt lat="43.73091" lon="6.84352">
        <ele>1494.9873047</ele>
        <time>2011-03-27T10:29:49Z</time>
      </trkpt>
      <trkpt lat="43.73092" lon="6.84348">
        <ele>1495.4680176</ele>
        <time>2011-03-27T10:29:55Z</time>
      </trkpt>
      <trkpt lat="43.73091" lon="6.84347">
        <ele>1495.9487305</ele>
        <time>2011-03-27T10:30:08Z</time>
      </trkpt>
      <trkpt lat="43.73093" lon="6.84342">
        <ele>1495.9487305</ele>
        <time>2011-03-27T10:30:14Z</time>
      </trkpt>
      <trkpt lat="43.73094" lon="6.84334">
        <ele>1496.9099121</ele>
        <time>2011-03-27T10:30:24Z</time>
      </trkpt>
      <trkpt lat="43.73095" lon="6.84326">
        <ele>1498.3518066</ele>
        <time>2011-03-27T10:30:32Z</time>
      </trkpt>
      <trkpt lat="43.73094" lon="6.8432">
        <ele>1499.7939453</ele>
        <time>2011-03-27T10:30:40Z</time>
      </trkpt>
      <trkpt lat="43.73095" lon="6.84305">
        <ele>1501.7167969</ele>
        <time>2011-03-27T10:30:54Z</time>
      </trkpt>
      <trkpt lat="43.73094" lon="6.84298">
        <ele>1503.6394043</ele>
        <time>2011-03-27T10:31:01Z</time>
      </trkpt>
      <trkpt lat="43.73093" lon="6.84296">
        <ele>1504.6005859</ele>
        <time>2011-03-27T10:31:08Z</time>
      </trkpt>
      <trkpt lat="43.73092" lon="6.84291">
        <ele>1505.0812988</ele>
        <time>2011-03-27T10:31:14Z</time>
      </trkpt>
      <trkpt lat="43.73093" lon="6.8428">
        <ele>1504.6005859</ele>
        <time>2011-03-27T10:31:24Z</time>
      </trkpt>
      <trkpt lat="43.73091" lon="6.8427">
        <ele>1507.965332</ele>
        <time>2011-03-27T10:31:34Z</time>
      </trkpt>
      <trkpt lat="43.7309" lon="6.84263">
        <ele>1510.8491211</ele>
        <time>2011-03-27T10:31:42Z</time>
      </trkpt>
      <trkpt lat="43.73089" lon="6.84254">
        <ele>1511.8105469</ele>
        <time>2011-03-27T10:31:50Z</time>
      </trkpt>
      <trkpt lat="43.73087" lon="6.84249">
        <ele>1510.3684082</ele>
        <time>2011-03-27T10:31:56Z</time>
      </trkpt>
      <trkpt lat="43.73085" lon="6.84243">
        <ele>1510.3684082</ele>
        <time>2011-03-27T10:32:04Z</time>
      </trkpt>
      <trkpt lat="43.73082" lon="6.84234">
        <ele>1511.329834</ele>
        <time>2011-03-27T10:32:13Z</time>
      </trkpt>
      <trkpt lat="43.73082" lon="6.84233">
        <ele>1511.8105469</ele>
        <time>2011-03-27T10:32:16Z</time>
      </trkpt>
      <trkpt lat="43.73081" lon="6.84229">
        <ele>1512.7717285</ele>
        <time>2011-03-27T10:32:24Z</time>
      </trkpt>
      <trkpt lat="43.73081" lon="6.84224">
        <ele>1514.6943359</ele>
        <time>2011-03-27T10:32:30Z</time>
      </trkpt>
      <trkpt lat="43.7308" lon="6.84215">
        <ele>1516.6171875</ele>
        <time>2011-03-27T10:32:39Z</time>
      </trkpt>
      <trkpt lat="43.7308" lon="6.84208">
        <ele>1517.5783691</ele>
        <time>2011-03-27T10:32:48Z</time>
      </trkpt>
      <trkpt lat="43.73083" lon="6.84211">
        <ele>1519.0205078</ele>
        <time>2011-03-27T10:32:53Z</time>
      </trkpt>
      <trkpt lat="43.73086" lon="6.84219">
        <ele>1522.3850098</ele>
        <time>2011-03-27T10:33:03Z</time>
      </trkpt>
      <trkpt lat="43.7309" lon="6.84227">
        <ele>1525.2687988</ele>
        <time>2011-03-27T10:33:13Z</time>
      </trkpt>
      <trkpt lat="43.73092" lon="6.8423">
        <ele>1526.7109375</ele>
        <time>2011-03-27T10:33:19Z</time>
      </trkpt>
      <trkpt lat="43.73094" lon="6.84231">
        <ele>1525.7495117</ele>
        <time>2011-03-27T10:33:23Z</time>
      </trkpt>
      <trkpt lat="43.73096" lon="6.84234">
        <ele>1524.7883301</ele>
        <time>2011-03-27T10:33:29Z</time>
      </trkpt>
      <trkpt lat="43.73098" lon="6.84235">
        <ele>1523.8269043</ele>
        <time>2011-03-27T10:33:33Z</time>
      </trkpt>
      <trkpt lat="43.73101" lon="6.84237">
        <ele>1522.8657227</ele>
        <time>2011-03-27T10:33:39Z</time>
      </trkpt>
      <trkpt lat="43.73102" lon="6.84239">
        <ele>1522.3850098</ele>
        <time>2011-03-27T10:33:45Z</time>
      </trkpt>
      <trkpt lat="43.73102" lon="6.84238">
        <ele>1519.9816895</ele>
        <time>2011-03-27T10:34:34Z</time>
      </trkpt>
      <trkpt lat="43.73102" lon="6.84238">
        <ele>1519.9816895</ele>
        <time>2011-03-27T10:34:35Z</time>
      </trkpt>
      <trkpt lat="43.73107" lon="6.84247">
        <ele>1520.4624023</ele>
        <time>2011-03-27T10:34:48Z</time>
      </trkpt>
      <trkpt lat="43.73108" lon="6.84248">
        <ele>1520.4624023</ele>
        <time>2011-03-27T10:34:49Z</time>
      </trkpt>
      <trkpt lat="43.7311" lon="6.84251">
        <ele>1521.423584</ele>
        <time>2011-03-27T10:34:53Z</time>
      </trkpt>
      <trkpt lat="43.73114" lon="6.84257">
        <ele>1522.8657227</ele>
        <time>2011-03-27T10:35:01Z</time>
      </trkpt>
      <trkpt lat="43.73117" lon="6.84262">
        <ele>1523.8269043</ele>
        <time>2011-03-27T10:35:07Z</time>
      </trkpt>
      <trkpt lat="43.73122" lon="6.84271">
        <ele>1525.7495117</ele>
        <time>2011-03-27T10:35:16Z</time>
      </trkpt>
      <trkpt lat="43.73123" lon="6.84272">
        <ele>1526.2302246</ele>
        <time>2011-03-27T10:35:20Z</time>
      </trkpt>
      <trkpt lat="43.73125" lon="6.84272">
        <ele>1525.2687988</ele>
        <time>2011-03-27T10:35:24Z</time>
      </trkpt>
      <trkpt lat="43.73128" lon="6.8428">
        <ele>1525.2687988</ele>
        <time>2011-03-27T10:35:32Z</time>
      </trkpt>
      <trkpt lat="43.73128" lon="6.8428">
        <ele>1526.2302246</ele>
        <time>2011-03-27T10:35:33Z</time>
      </trkpt>
      <trkpt lat="43.73131" lon="6.84285">
        <ele>1526.7109375</ele>
        <time>2011-03-27T10:35:40Z</time>
      </trkpt>
      <trkpt lat="43.73133" lon="6.84293">
        <ele>1528.152832</ele>
        <time>2011-03-27T10:35:49Z</time>
      </trkpt>
      <trkpt lat="43.73137" lon="6.843">
        <ele>1528.6335449</ele>
        <time>2011-03-27T10:35:56Z</time>
      </trkpt>
      <trkpt lat="43.73138" lon="6.84301">
        <ele>1529.1140137</ele>
        <time>2011-03-27T10:35:58Z</time>
      </trkpt>
      <trkpt lat="43.73139" lon="6.84306">
        <ele>1531.517334</ele>
        <time>2011-03-27T10:36:04Z</time>
      </trkpt>
      <trkpt lat="43.73139" lon="6.84308">
        <ele>1532.9594727</ele>
        <time>2011-03-27T10:36:08Z</time>
      </trkpt>
      <trkpt lat="43.73141" lon="6.84312">
        <ele>1534.4016113</ele>
        <time>2011-03-27T10:36:19Z</time>
      </trkpt>
      <trkpt lat="43.73142" lon="6.84314">
        <ele>1534.4016113</ele>
        <time>2011-03-27T10:36:24Z</time>
      </trkpt>
      <trkpt lat="43.73145" lon="6.84316">
        <ele>1532.9594727</ele>
        <time>2011-03-27T10:36:34Z</time>
      </trkpt>
      <trkpt lat="43.73147" lon="6.84317">
        <ele>1532.9594727</ele>
        <time>2011-03-27T10:36:39Z</time>
      </trkpt>
      <trkpt lat="43.73149" lon="6.84312">
        <ele>1535.362793</ele>
        <time>2011-03-27T10:37:06Z</time>
      </trkpt>
      <trkpt lat="43.73151" lon="6.84308">
        <ele>1536.3242188</ele>
        <time>2011-03-27T10:37:12Z</time>
      </trkpt>
      <trkpt lat="43.73152" lon="6.84307">
        <ele>1536.8046875</ele>
        <time>2011-03-27T10:37:16Z</time>
      </trkpt>
      <trkpt lat="43.73154" lon="6.84309">
        <ele>1537.2854004</ele>
        <time>2011-03-27T10:37:22Z</time>
      </trkpt>
      <trkpt lat="43.73157" lon="6.84313">
        <ele>1539.6887207</ele>
        <time>2011-03-27T10:37:29Z</time>
      </trkpt>
      <trkpt lat="43.7316" lon="6.8431">
        <ele>1544.4951172</ele>
        <time>2011-03-27T10:37:43Z</time>
      </trkpt>
      <trkpt lat="43.73161" lon="6.84312">
        <ele>1546.8984375</ele>
        <time>2011-03-27T10:37:48Z</time>
      </trkpt>
      <trkpt lat="43.73162" lon="6.84316">
        <ele>1548.8212891</ele>
        <time>2011-03-27T10:37:53Z</time>
      </trkpt>
      <trkpt lat="43.73164" lon="6.84318">
        <ele>1550.2634277</ele>
        <time>2011-03-27T10:37:58Z</time>
      </trkpt>
      <trkpt lat="43.73164" lon="6.84318">
        <ele>1550.7438965</ele>
        <time>2011-03-27T10:37:59Z</time>
      </trkpt>
      <trkpt lat="43.7317" lon="6.84323">
        <ele>1555.0698242</ele>
        <time>2011-03-27T10:38:23Z</time>
      </trkpt>
      <trkpt lat="43.73174" lon="6.84327">
        <ele>1556.5117188</ele>
        <time>2011-03-27T10:38:31Z</time>
      </trkpt>
      <trkpt lat="43.73174" lon="6.84328">
        <ele>1556.5117188</ele>
        <time>2011-03-27T10:38:32Z</time>
      </trkpt>
      <trkpt lat="43.73174" lon="6.84334">
        <ele>1556.9924316</ele>
        <time>2011-03-27T10:38:38Z</time>
      </trkpt>
      <trkpt lat="43.73171" lon="6.84341">
        <ele>1557.4731445</ele>
        <time>2011-03-27T10:38:46Z</time>
      </trkpt>
      <trkpt lat="43.73169" lon="6.84345">
        <ele>1557.4731445</ele>
        <time>2011-03-27T10:38:54Z</time>
      </trkpt>
      <trkpt lat="43.73169" lon="6.84346">
        <ele>1557.9538574</ele>
        <time>2011-03-27T10:38:56Z</time>
      </trkpt>
      <trkpt lat="43.73171" lon="6.84333">
        <ele>1555.5505371</ele>
        <time>2011-03-27T10:44:28Z</time>
      </trkpt>
      <trkpt lat="43.73171" lon="6.84332">
        <ele>1555.5505371</ele>
        <time>2011-03-27T10:44:31Z</time>
      </trkpt>
      <trkpt lat="43.73172" lon="6.84329">
        <ele>1556.0310059</ele>
        <time>2011-03-27T10:44:35Z</time>
      </trkpt>
      <trkpt lat="43.73171" lon="6.84327">
        <ele>1556.0310059</ele>
        <time>2011-03-27T10:44:41Z</time>
      </trkpt>
      <trkpt lat="43.73168" lon="6.84324">
        <ele>1555.0698242</ele>
        <time>2011-03-27T10:44:53Z</time>
      </trkpt>
      <trkpt lat="43.73164" lon="6.84321">
        <ele>1554.1086426</ele>
        <time>2011-03-27T10:45:08Z</time>
      </trkpt>
      <trkpt lat="43.73164" lon="6.8432">
        <ele>1554.1086426</ele>
        <time>2011-03-27T10:45:10Z</time>
      </trkpt>
      <trkpt lat="43.73162" lon="6.84318">
        <ele>1553.1472168</ele>
        <time>2011-03-27T10:45:15Z</time>
      </trkpt>
      <trkpt lat="43.73161" lon="6.84315">
        <ele>1552.6665039</ele>
        <time>2011-03-27T10:45:20Z</time>
      </trkpt>
      <trkpt lat="43.7316" lon="6.84315">
        <ele>1552.6665039</ele>
        <time>2011-03-27T10:45:22Z</time>
      </trkpt>
      <trkpt lat="43.73157" lon="6.84315">
        <ele>1549.7827148</ele>
        <time>2011-03-27T10:45:38Z</time>
      </trkpt>
      <trkpt lat="43.73156" lon="6.84315">
        <ele>1549.7827148</ele>
        <time>2011-03-27T10:45:40Z</time>
      </trkpt>
      <trkpt lat="43.73151" lon="6.84307">
        <ele>1546.4179688</ele>
        <time>2011-03-27T10:45:53Z</time>
      </trkpt>
      <trkpt lat="43.7315" lon="6.84307">
        <ele>1545.456543</ele>
        <time>2011-03-27T10:45:57Z</time>
      </trkpt>
      <trkpt lat="43.7315" lon="6.84314">
        <ele>1541.6113281</ele>
        <time>2011-03-27T10:46:14Z</time>
      </trkpt>
      <trkpt lat="43.73149" lon="6.84317">
        <ele>1537.2854004</ele>
        <time>2011-03-27T10:46:20Z</time>
      </trkpt>
      <trkpt lat="43.73144" lon="6.84314">
        <ele>1535.8435059</ele>
        <time>2011-03-27T10:46:34Z</time>
      </trkpt>
      <trkpt lat="43.73144" lon="6.84313">
        <ele>1535.8435059</ele>
        <time>2011-03-27T10:46:36Z</time>
      </trkpt>
      <trkpt lat="43.73142" lon="6.8431">
        <ele>1534.8823242</ele>
        <time>2011-03-27T10:46:43Z</time>
      </trkpt>
      <trkpt lat="43.7314" lon="6.84309">
        <ele>1534.4016113</ele>
        <time>2011-03-27T10:46:48Z</time>
      </trkpt>
      <trkpt lat="43.73137" lon="6.84304">
        <ele>1532.4790039</ele>
        <time>2011-03-27T10:46:58Z</time>
      </trkpt>
      <trkpt lat="43.73132" lon="6.84292">
        <ele>1531.0368652</ele>
        <time>2011-03-27T10:47:03Z</time>
      </trkpt>
      <trkpt lat="43.73131" lon="6.84287">
        <ele>1530.0754395</ele>
        <time>2011-03-27T10:47:07Z</time>
      </trkpt>
      <trkpt lat="43.73129" lon="6.84284">
        <ele>1529.5947266</ele>
        <time>2011-03-27T10:47:12Z</time>
      </trkpt>
      <trkpt lat="43.73128" lon="6.84278">
        <ele>1527.6721191</ele>
        <time>2011-03-27T10:47:19Z</time>
      </trkpt>
      <trkpt lat="43.73128" lon="6.84276">
        <ele>1527.1916504</ele>
        <time>2011-03-27T10:47:22Z</time>
      </trkpt>
      <trkpt lat="43.73126" lon="6.84272">
        <ele>1526.7109375</ele>
        <time>2011-03-27T10:47:27Z</time>
      </trkpt>
      <trkpt lat="43.73125" lon="6.84271">
        <ele>1525.7495117</ele>
        <time>2011-03-27T10:47:31Z</time>
      </trkpt>
      <trkpt lat="43.73121" lon="6.84265">
        <ele>1525.2687988</ele>
        <time>2011-03-27T10:47:36Z</time>
      </trkpt>
      <trkpt lat="43.73117" lon="6.84258">
        <ele>1524.7883301</ele>
        <time>2011-03-27T10:47:41Z</time>
      </trkpt>
      <trkpt lat="43.73113" lon="6.84254">
        <ele>1523.8269043</ele>
        <time>2011-03-27T10:47:47Z</time>
      </trkpt>
      <trkpt lat="43.73108" lon="6.84247">
        <ele>1522.8657227</ele>
        <time>2011-03-27T10:47:52Z</time>
      </trkpt>
      <trkpt lat="43.73099" lon="6.84236">
        <ele>1520.9431152</ele>
        <time>2011-03-27T10:47:57Z</time>
      </trkpt>
      <trkpt lat="43.73088" lon="6.84221">
        <ele>1519.0205078</ele>
        <time>2011-03-27T10:48:02Z</time>
      </trkpt>
      <trkpt lat="43.73082" lon="6.8421">
        <ele>1517.0979004</ele>
        <time>2011-03-27T10:48:06Z</time>
      </trkpt>
      <trkpt lat="43.73081" lon="6.84216">
        <ele>1516.1364746</ele>
        <time>2011-03-27T10:48:10Z</time>
      </trkpt>
      <trkpt lat="43.73082" lon="6.84238">
        <ele>1514.6943359</ele>
        <time>2011-03-27T10:48:15Z</time>
      </trkpt>
      <trkpt lat="43.73089" lon="6.8426">
        <ele>1512.2910156</ele>
        <time>2011-03-27T10:48:20Z</time>
      </trkpt>
      <trkpt lat="43.73092" lon="6.84287">
        <ele>1508.4458008</ele>
        <time>2011-03-27T10:48:25Z</time>
      </trkpt>
      <trkpt lat="43.73095" lon="6.84311">
        <ele>1503.6394043</ele>
        <time>2011-03-27T10:48:30Z</time>
      </trkpt>
      <trkpt lat="43.73094" lon="6.84336">
        <ele>1499.3132324</ele>
        <time>2011-03-27T10:48:34Z</time>
      </trkpt>
      <trkpt lat="43.73093" lon="6.84342">
        <ele>1497.8713379</ele>
        <time>2011-03-27T10:48:35Z</time>
      </trkpt>
      <trkpt lat="43.73092" lon="6.84363">
        <ele>1494.026123</ele>
        <time>2011-03-27T10:48:39Z</time>
      </trkpt>
      <trkpt lat="43.73091" lon="6.84367">
        <ele>1493.5454102</ele>
        <time>2011-03-27T10:48:44Z</time>
      </trkpt>
      <trkpt lat="43.7309" lon="6.84389">
        <ele>1491.6228027</ele>
        <time>2011-03-27T10:48:48Z</time>
      </trkpt>
      <trkpt lat="43.73088" lon="6.84414">
        <ele>1488.2583008</ele>
        <time>2011-03-27T10:48:52Z</time>
      </trkpt>
      <trkpt lat="43.73086" lon="6.84434">
        <ele>1484.4130859</ele>
        <time>2011-03-27T10:48:56Z</time>
      </trkpt>
      <trkpt lat="43.73087" lon="6.84447">
        <ele>1477.203125</ele>
        <time>2011-03-27T10:49:01Z</time>
      </trkpt>
      <trkpt lat="43.73089" lon="6.84467">
        <ele>1470.9545898</ele>
        <time>2011-03-27T10:49:06Z</time>
      </trkpt>
      <trkpt lat="43.73089" lon="6.84496">
        <ele>1468.5512695</ele>
        <time>2011-03-27T10:49:12Z</time>
      </trkpt>
      <trkpt lat="43.7309" lon="6.84505">
        <ele>1468.0705566</ele>
        <time>2011-03-27T10:49:16Z</time>
      </trkpt>
      <trkpt lat="43.7309" lon="6.84505">
        <ele>1468.5512695</ele>
        <time>2011-03-27T10:49:18Z</time>
      </trkpt>
      <trkpt lat="43.7309" lon="6.84513">
        <ele>1468.0705566</ele>
        <time>2011-03-27T10:49:24Z</time>
      </trkpt>
      <trkpt lat="43.73089" lon="6.84531">
        <ele>1465.6672363</ele>
        <time>2011-03-27T10:49:28Z</time>
      </trkpt>
      <trkpt lat="43.73089" lon="6.84543">
        <ele>1464.7058105</ele>
        <time>2011-03-27T10:49:31Z</time>
      </trkpt>
      <trkpt lat="43.7309" lon="6.84545">
        <ele>1464.2250977</ele>
        <time>2011-03-27T10:49:32Z</time>
      </trkpt>
      <trkpt lat="43.73089" lon="6.84548">
        <ele>1464.2250977</ele>
        <time>2011-03-27T10:49:36Z</time>
      </trkpt>
      <trkpt lat="43.73088" lon="6.84547">
        <ele>1463.7443848</ele>
        <time>2011-03-27T10:49:39Z</time>
      </trkpt>
      <trkpt lat="43.73088" lon="6.84546">
        <ele>1463.263916</ele>
        <time>2011-03-27T10:49:41Z</time>
      </trkpt>
      <trkpt lat="43.73081" lon="6.84533">
        <ele>1459.8991699</ele>
        <time>2011-03-27T10:49:54Z</time>
      </trkpt>
      <trkpt lat="43.73074" lon="6.8452">
        <ele>1456.534668</ele>
        <time>2011-03-27T10:49:59Z</time>
      </trkpt>
      <trkpt lat="43.73064" lon="6.84506">
        <ele>1452.2087402</ele>
        <time>2011-03-27T10:50:04Z</time>
      </trkpt>
      <trkpt lat="43.73057" lon="6.84496">
        <ele>1448.8439941</ele>
        <time>2011-03-27T10:50:08Z</time>
      </trkpt>
      <trkpt lat="43.73047" lon="6.84482">
        <ele>1444.9987793</ele>
        <time>2011-03-27T10:50:12Z</time>
      </trkpt>
      <trkpt lat="43.73035" lon="6.84464">
        <ele>1442.1149902</ele>
        <time>2011-03-27T10:50:16Z</time>
      </trkpt>
      <trkpt lat="43.73015" lon="6.84436">
        <ele>1437.7890625</ele>
        <time>2011-03-27T10:50:22Z</time>
      </trkpt>
      <trkpt lat="43.72991" lon="6.84406">
        <ele>1432.501709</ele>
        <time>2011-03-27T10:50:28Z</time>
      </trkpt>
      <trkpt lat="43.72972" lon="6.84376">
        <ele>1428.6564941</ele>
        <time>2011-03-27T10:50:33Z</time>
      </trkpt>
      <trkpt lat="43.7296" lon="6.84346">
        <ele>1425.291748</ele>
        <time>2011-03-27T10:50:39Z</time>
      </trkpt>
      <trkpt lat="43.72957" lon="6.8434">
        <ele>1424.8112793</ele>
        <time>2011-03-27T10:50:40Z</time>
      </trkpt>
      <trkpt lat="43.72941" lon="6.84321">
        <ele>1421.4465332</ele>
        <time>2011-03-27T10:50:44Z</time>
      </trkpt>
      <trkpt lat="43.72934" lon="6.84309">
        <ele>1419.5239258</ele>
        <time>2011-03-27T10:50:46Z</time>
      </trkpt>
      <trkpt lat="43.72922" lon="6.8428">
        <ele>1416.1591797</ele>
        <time>2011-03-27T10:50:50Z</time>
      </trkpt>
      <trkpt lat="43.72914" lon="6.84259">
        <ele>1414.7172852</ele>
        <time>2011-03-27T10:50:53Z</time>
      </trkpt>
      <trkpt lat="43.72911" lon="6.84246">
        <ele>1413.2753906</ele>
        <time>2011-03-27T10:50:55Z</time>
      </trkpt>
      <trkpt lat="43.72904" lon="6.84226">
        <ele>1410.8720703</ele>
        <time>2011-03-27T10:50:58Z</time>
      </trkpt>
      <trkpt lat="43.72894" lon="6.84196">
        <ele>1409.4301758</ele>
        <time>2011-03-27T10:51:02Z</time>
      </trkpt>
      <trkpt lat="43.72884" lon="6.84178">
        <ele>1407.5075684</ele>
        <time>2011-03-27T10:51:05Z</time>
      </trkpt>
      <trkpt lat="43.72868" lon="6.8416">
        <ele>1407.0268555</ele>
        <time>2011-03-27T10:51:08Z</time>
      </trkpt>
      <trkpt lat="43.72856" lon="6.84142">
        <ele>1406.5461426</ele>
        <time>2011-03-27T10:51:11Z</time>
      </trkpt>
      <trkpt lat="43.72849" lon="6.84136">
        <ele>1405.5849609</ele>
        <time>2011-03-27T10:51:15Z</time>
      </trkpt>
      <trkpt lat="43.72847" lon="6.84136">
        <ele>1405.5849609</ele>
        <time>2011-03-27T10:51:16Z</time>
      </trkpt>
      <trkpt lat="43.72843" lon="6.84141">
        <ele>1406.5461426</ele>
        <time>2011-03-27T10:51:22Z</time>
      </trkpt>
      <trkpt lat="43.72848" lon="6.84143">
        <ele>1412.3139648</ele>
        <time>2011-03-27T10:51:37Z</time>
      </trkpt>
      <trkpt lat="43.72849" lon="6.84143">
        <ele>1414.7172852</ele>
        <time>2011-03-27T10:51:48Z</time>
      </trkpt>
      <trkpt lat="43.72847" lon="6.84146">
        <ele>1416.6398926</ele>
        <time>2011-03-27T10:51:56Z</time>
      </trkpt>
      <trkpt lat="43.72849" lon="6.84157">
        <ele>1416.6398926</ele>
        <time>2011-03-27T10:52:13Z</time>
      </trkpt>
      <trkpt lat="43.72855" lon="6.84176">
        <ele>1413.7558594</ele>
        <time>2011-03-27T10:52:17Z</time>
      </trkpt>
      <trkpt lat="43.72864" lon="6.84215">
        <ele>1409.4301758</ele>
        <time>2011-03-27T10:52:22Z</time>
      </trkpt>
      <trkpt lat="43.72871" lon="6.84242">
        <ele>1406.0654297</ele>
        <time>2011-03-27T10:52:25Z</time>
      </trkpt>
      <trkpt lat="43.72873" lon="6.84252">
        <ele>1405.104248</ele>
        <time>2011-03-27T10:52:26Z</time>
      </trkpt>
      <trkpt lat="43.72873" lon="6.84252">
        <ele>1405.104248</ele>
        <time>2011-03-27T10:52:26Z</time>
      </trkpt>
      <trkpt lat="43.72879" lon="6.84304">
        <ele>1399.8168945</ele>
        <time>2011-03-27T10:52:31Z</time>
      </trkpt>
      <trkpt lat="43.72878" lon="6.84357">
        <ele>1393.5683594</ele>
        <time>2011-03-27T10:52:36Z</time>
      </trkpt>
      <trkpt lat="43.72879" lon="6.84367">
        <ele>1391.645752</ele>
        <time>2011-03-27T10:52:37Z</time>
      </trkpt>
      <trkpt lat="43.72874" lon="6.84431">
        <ele>1383.9550781</ele>
        <time>2011-03-27T10:52:43Z</time>
      </trkpt>
      <trkpt lat="43.7288" lon="6.84466">
        <ele>1378.1872559</ele>
        <time>2011-03-27T10:52:47Z</time>
      </trkpt>
      <trkpt lat="43.72896" lon="6.84502">
        <ele>1372.9001465</ele>
        <time>2011-03-27T10:52:51Z</time>
      </trkpt>
      <trkpt lat="43.72918" lon="6.8457">
        <ele>1367.6125488</ele>
        <time>2011-03-27T10:52:57Z</time>
      </trkpt>
      <trkpt lat="43.72922" lon="6.84619">
        <ele>1362.8061523</ele>
        <time>2011-03-27T10:53:01Z</time>
      </trkpt>
      <trkpt lat="43.72922" lon="6.84667">
        <ele>1357.9997559</ele>
        <time>2011-03-27T10:53:05Z</time>
      </trkpt>
      <trkpt lat="43.72925" lon="6.84704">
        <ele>1354.1542969</ele>
        <time>2011-03-27T10:53:09Z</time>
      </trkpt>
      <trkpt lat="43.7292" lon="6.84723">
        <ele>1349.3476563</ele>
        <time>2011-03-27T10:53:14Z</time>
      </trkpt>
      <trkpt lat="43.72916" lon="6.84723">
        <ele>1348.8669434</ele>
        <time>2011-03-27T10:53:16Z</time>
      </trkpt>
      <trkpt lat="43.72916" lon="6.84722">
        <ele>1347.9057617</ele>
        <time>2011-03-27T10:53:19Z</time>
      </trkpt>
      <trkpt lat="43.72912" lon="6.84716">
        <ele>1346.9443359</ele>
        <time>2011-03-27T10:54:01Z</time>
      </trkpt>
      <trkpt lat="43.72906" lon="6.84704">
        <ele>1347.4250488</ele>
        <time>2011-03-27T10:54:07Z</time>
      </trkpt>
      <trkpt lat="43.72904" lon="6.847">
        <ele>1347.4250488</ele>
        <time>2011-03-27T10:54:08Z</time>
      </trkpt>
      <trkpt lat="43.72892" lon="6.84676">
        <ele>1347.4250488</ele>
        <time>2011-03-27T10:54:15Z</time>
      </trkpt>
      <trkpt lat="43.72887" lon="6.84668">
        <ele>1346.9443359</ele>
        <time>2011-03-27T10:54:19Z</time>
      </trkpt>
      <trkpt lat="43.72882" lon="6.84653">
        <ele>1347.4250488</ele>
        <time>2011-03-27T10:54:25Z</time>
      </trkpt>
      <trkpt lat="43.72872" lon="6.84631">
        <ele>1348.8669434</ele>
        <time>2011-03-27T10:54:31Z</time>
      </trkpt>
      <trkpt lat="43.72862" lon="6.84608">
        <ele>1346.4638672</ele>
        <time>2011-03-27T10:54:36Z</time>
      </trkpt>
      <trkpt lat="43.72856" lon="6.84595">
        <ele>1344.0605469</ele>
        <time>2011-03-27T10:54:39Z</time>
      </trkpt>
      <trkpt lat="43.72851" lon="6.846">
        <ele>1342.6186523</ele>
        <time>2011-03-27T10:54:43Z</time>
      </trkpt>
      <trkpt lat="43.72851" lon="6.84605">
        <ele>1342.1379395</ele>
        <time>2011-03-27T10:54:44Z</time>
      </trkpt>
      <trkpt lat="43.72857" lon="6.84645">
        <ele>1341.6572266</ele>
        <time>2011-03-27T10:54:51Z</time>
      </trkpt>
      <trkpt lat="43.72856" lon="6.84663">
        <ele>1341.1765137</ele>
        <time>2011-03-27T10:54:54Z</time>
      </trkpt>
      <trkpt lat="43.7286" lon="6.84686">
        <ele>1341.6572266</ele>
        <time>2011-03-27T10:54:58Z</time>
      </trkpt>
      <trkpt lat="43.72869" lon="6.8471">
        <ele>1340.6958008</ele>
        <time>2011-03-27T10:55:03Z</time>
      </trkpt>
      <trkpt lat="43.72874" lon="6.84722">
        <ele>1339.734375</ele>
        <time>2011-03-27T10:55:06Z</time>
      </trkpt>
      <trkpt lat="43.7288" lon="6.84748">
        <ele>1338.2924805</ele>
        <time>2011-03-27T10:55:13Z</time>
      </trkpt>
      <trkpt lat="43.72883" lon="6.84763">
        <ele>1337.3310547</ele>
        <time>2011-03-27T10:55:17Z</time>
      </trkpt>
      <trkpt lat="43.72886" lon="6.84779">
        <ele>1335.8891602</ele>
        <time>2011-03-27T10:55:22Z</time>
      </trkpt>
      <trkpt lat="43.72894" lon="6.84799">
        <ele>1333.9665527</ele>
        <time>2011-03-27T10:55:27Z</time>
      </trkpt>
      <trkpt lat="43.72906" lon="6.84826">
        <ele>1330.6020508</ele>
        <time>2011-03-27T10:55:32Z</time>
      </trkpt>
      <trkpt lat="43.7291" lon="6.84837">
        <ele>1329.1599121</ele>
        <time>2011-03-27T10:55:34Z</time>
      </trkpt>
      <trkpt lat="43.72927" lon="6.84856">
        <ele>1325.7954102</ele>
        <time>2011-03-27T10:55:39Z</time>
      </trkpt>
      <trkpt lat="43.72935" lon="6.84861">
        <ele>1324.8342285</ele>
        <time>2011-03-27T10:55:41Z</time>
      </trkpt>
      <trkpt lat="43.72952" lon="6.84881">
        <ele>1324.8342285</ele>
        <time>2011-03-27T10:55:46Z</time>
      </trkpt>
      <trkpt lat="43.7296" lon="6.8489">
        <ele>1323.8725586</ele>
        <time>2011-03-27T10:55:48Z</time>
      </trkpt>
      <trkpt lat="43.72971" lon="6.84915">
        <ele>1323.8725586</ele>
        <time>2011-03-27T10:55:53Z</time>
      </trkpt>
      <trkpt lat="43.72975" lon="6.84937">
        <ele>1323.3920898</ele>
        <time>2011-03-27T10:55:57Z</time>
      </trkpt>
      <trkpt lat="43.72976" lon="6.84954">
        <ele>1323.3920898</ele>
        <time>2011-03-27T10:56:00Z</time>
      </trkpt>
      <trkpt lat="43.72979" lon="6.84984">
        <ele>1322.911377</ele>
        <time>2011-03-27T10:56:06Z</time>
      </trkpt>
      <trkpt lat="43.72981" lon="6.85009">
        <ele>1322.4306641</ele>
        <time>2011-03-27T10:56:11Z</time>
      </trkpt>
      <trkpt lat="43.72987" lon="6.85026">
        <ele>1321.4692383</ele>
        <time>2011-03-27T10:56:15Z</time>
      </trkpt>
      <trkpt lat="43.72988" lon="6.85028">
        <ele>1321.9499512</ele>
        <time>2011-03-27T10:56:16Z</time>
      </trkpt>
      <trkpt lat="43.7299" lon="6.85029">
        <ele>1322.4306641</ele>
        <time>2011-03-27T10:56:20Z</time>
      </trkpt>
      <trkpt lat="43.72994" lon="6.8503">
        <ele>1324.8342285</ele>
        <time>2011-03-27T10:56:36Z</time>
      </trkpt>
      <trkpt lat="43.72992" lon="6.85027">
        <ele>1327.2375488</ele>
        <time>2011-03-27T10:57:42Z</time>
      </trkpt>
      <trkpt lat="43.72992" lon="6.85027">
        <ele>1327.2375488</ele>
        <time>2011-03-27T10:57:43Z</time>
      </trkpt>
      <trkpt lat="43.72999" lon="6.85028">
        <ele>1324.8342285</ele>
        <time>2011-03-27T10:57:49Z</time>
      </trkpt>
      <trkpt lat="43.73003" lon="6.85029">
        <ele>1324.3535156</ele>
        <time>2011-03-27T10:57:51Z</time>
      </trkpt>
      <trkpt lat="43.73013" lon="6.85031">
        <ele>1322.911377</ele>
        <time>2011-03-27T10:57:55Z</time>
      </trkpt>
      <trkpt lat="43.73015" lon="6.85032">
        <ele>1322.911377</ele>
        <time>2011-03-27T10:57:56Z</time>
      </trkpt>
      <trkpt lat="43.73024" lon="6.85038">
        <ele>1320.5080566</ele>
        <time>2011-03-27T10:58:03Z</time>
      </trkpt>
      <trkpt lat="43.73028" lon="6.8504">
        <ele>1319.546875</ele>
        <time>2011-03-27T10:58:07Z</time>
      </trkpt>
      <trkpt lat="43.73036" lon="6.85041">
        <ele>1319.0661621</ele>
        <time>2011-03-27T10:58:12Z</time>
      </trkpt>
      <trkpt lat="43.73037" lon="6.85042">
        <ele>1318.5854492</ele>
        <time>2011-03-27T10:58:13Z</time>
      </trkpt>
      <trkpt lat="43.7304" lon="6.85044">
        <ele>1318.1047363</ele>
        <time>2011-03-27T10:58:14Z</time>
      </trkpt>
      <trkpt lat="43.7305" lon="6.85055">
        <ele>1318.1047363</ele>
        <time>2011-03-27T10:58:20Z</time>
      </trkpt>
      <trkpt lat="43.73051" lon="6.85057">
        <ele>1318.1047363</ele>
        <time>2011-03-27T10:58:21Z</time>
      </trkpt>
      <trkpt lat="43.73052" lon="6.85063">
        <ele>1319.546875</ele>
        <time>2011-03-27T10:58:27Z</time>
      </trkpt>
      <trkpt lat="43.73057" lon="6.85059">
        <ele>1319.546875</ele>
        <time>2011-03-27T10:59:02Z</time>
      </trkpt>
      <trkpt lat="43.73056" lon="6.85053">
        <ele>1317.6240234</ele>
        <time>2011-03-27T10:59:10Z</time>
      </trkpt>
      <trkpt lat="43.73049" lon="6.85044">
        <ele>1317.6240234</ele>
        <time>2011-03-27T10:59:14Z</time>
      </trkpt>
      <trkpt lat="43.73045" lon="6.85041">
        <ele>1318.1047363</ele>
        <time>2011-03-27T10:59:16Z</time>
      </trkpt>
      <trkpt lat="43.73043" lon="6.8504">
        <ele>1318.5854492</ele>
        <time>2011-03-27T10:59:17Z</time>
      </trkpt>
      <trkpt lat="43.73029" lon="6.85033">
        <ele>1317.6240234</ele>
        <time>2011-03-27T10:59:23Z</time>
      </trkpt>
      <trkpt lat="43.73019" lon="6.85029">
        <ele>1314.7402344</ele>
        <time>2011-03-27T10:59:29Z</time>
      </trkpt>
      <trkpt lat="43.72999" lon="6.85028">
        <ele>1317.6240234</ele>
        <time>2011-03-27T10:59:36Z</time>
      </trkpt>
      <trkpt lat="43.72992" lon="6.85028">
        <ele>1318.5854492</ele>
        <time>2011-03-27T10:59:40Z</time>
      </trkpt>
      <trkpt lat="43.7299" lon="6.85032">
        <ele>1318.1047363</ele>
        <time>2011-03-27T10:59:45Z</time>
      </trkpt>
      <trkpt lat="43.7299" lon="6.85033">
        <ele>1318.1047363</ele>
        <time>2011-03-27T10:59:46Z</time>
      </trkpt>
      <trkpt lat="43.72992" lon="6.85042">
        <ele>1315.7016602</ele>
        <time>2011-03-27T10:59:50Z</time>
      </trkpt>
      <trkpt lat="43.72995" lon="6.85064">
        <ele>1313.2983398</ele>
        <time>2011-03-27T10:59:56Z</time>
      </trkpt>
      <trkpt lat="43.72995" lon="6.85082">
        <ele>1310.4143066</ele>
        <time>2011-03-27T11:00:00Z</time>
      </trkpt>
      <trkpt lat="43.72989" lon="6.85102">
        <ele>1307.0495605</ele>
        <time>2011-03-27T11:00:04Z</time>
      </trkpt>
      <trkpt lat="43.7299" lon="6.8513">
        <ele>1300.3205566</ele>
        <time>2011-03-27T11:00:09Z</time>
      </trkpt>
      <trkpt lat="43.72991" lon="6.85133">
        <ele>1299.3591309</ele>
        <time>2011-03-27T11:00:10Z</time>
      </trkpt>
      <trkpt lat="43.73" lon="6.85143">
        <ele>1295.0332031</ele>
        <time>2011-03-27T11:00:16Z</time>
      </trkpt>
      <trkpt lat="43.73002" lon="6.8515">
        <ele>1293.5913086</ele>
        <time>2011-03-27T11:00:20Z</time>
      </trkpt>
      <trkpt lat="43.73002" lon="6.8515">
        <ele>1293.5913086</ele>
        <time>2011-03-27T11:00:21Z</time>
      </trkpt>
      <trkpt lat="43.73004" lon="6.85152">
        <ele>1291.1877441</ele>
        <time>2011-03-27T11:00:27Z</time>
      </trkpt>
      <trkpt lat="43.73005" lon="6.85152">
        <ele>1289.7458496</ele>
        <time>2011-03-27T11:00:41Z</time>
      </trkpt>
      <trkpt lat="43.73004" lon="6.85157">
        <ele>1291.668457</ele>
        <time>2011-03-27T11:00:51Z</time>
      </trkpt>
      <trkpt lat="43.73004" lon="6.85157">
        <ele>1291.668457</ele>
        <time>2011-03-27T11:00:52Z</time>
      </trkpt>
      <trkpt lat="43.73008" lon="6.85161">
        <ele>1291.1877441</ele>
        <time>2011-03-27T11:00:55Z</time>
      </trkpt>
      <trkpt lat="43.73007" lon="6.85169">
        <ele>1290.2265625</ele>
        <time>2011-03-27T11:00:59Z</time>
      </trkpt>
      <trkpt lat="43.72996" lon="6.85179">
        <ele>1289.7458496</ele>
        <time>2011-03-27T11:01:03Z</time>
      </trkpt>
      <trkpt lat="43.7299" lon="6.85181">
        <ele>1287.8232422</ele>
        <time>2011-03-27T11:01:05Z</time>
      </trkpt>
      <trkpt lat="43.72975" lon="6.85184">
        <ele>1283.4973145</ele>
        <time>2011-03-27T11:01:09Z</time>
      </trkpt>
      <trkpt lat="43.7297" lon="6.85183">
        <ele>1282.0554199</ele>
        <time>2011-03-27T11:01:11Z</time>
      </trkpt>
      <trkpt lat="43.72971" lon="6.85188">
        <ele>1279.1713867</ele>
        <time>2011-03-27T11:01:15Z</time>
      </trkpt>
      <trkpt lat="43.72982" lon="6.85208">
        <ele>1274.845459</ele>
        <time>2011-03-27T11:01:20Z</time>
      </trkpt>
      <trkpt lat="43.72991" lon="6.85225">
        <ele>1274.3647461</ele>
        <time>2011-03-27T11:01:24Z</time>
      </trkpt>
      <trkpt lat="43.72993" lon="6.85227">
        <ele>1272.9228516</ele>
        <time>2011-03-27T11:01:25Z</time>
      </trkpt>
      <trkpt lat="43.72993" lon="6.85233">
        <ele>1267.635498</ele>
        <time>2011-03-27T11:01:30Z</time>
      </trkpt>
      <trkpt lat="43.72984" lon="6.85233">
        <ele>1260.9064941</ele>
        <time>2011-03-27T11:01:35Z</time>
      </trkpt>
      <trkpt lat="43.72975" lon="6.85235">
        <ele>1260.4257813</ele>
        <time>2011-03-27T11:01:39Z</time>
      </trkpt>
      <trkpt lat="43.72973" lon="6.85237">
        <ele>1260.9064941</ele>
        <time>2011-03-27T11:01:42Z</time>
      </trkpt>
      <trkpt lat="43.72972" lon="6.85239">
        <ele>1260.4257813</ele>
        <time>2011-03-27T11:01:45Z</time>
      </trkpt>
      <trkpt lat="43.72971" lon="6.85248">
        <ele>1259.4643555</ele>
        <time>2011-03-27T11:01:50Z</time>
      </trkpt>
      <trkpt lat="43.72967" lon="6.85268">
        <ele>1260.9064941</ele>
        <time>2011-03-27T11:01:56Z</time>
      </trkpt>
      <trkpt lat="43.72957" lon="6.85281">
        <ele>1260.4257813</ele>
        <time>2011-03-27T11:02:01Z</time>
      </trkpt>
      <trkpt lat="43.72951" lon="6.85282">
        <ele>1261.8679199</ele>
        <time>2011-03-27T11:02:04Z</time>
      </trkpt>
      <trkpt lat="43.72948" lon="6.85283">
        <ele>1262.8291016</ele>
        <time>2011-03-27T11:02:09Z</time>
      </trkpt>
      <trkpt lat="43.72941" lon="6.85286">
        <ele>1264.2709961</ele>
        <time>2011-03-27T11:02:16Z</time>
      </trkpt>
      <trkpt lat="43.7294" lon="6.85286">
        <ele>1263.7902832</ele>
        <time>2011-03-27T11:02:19Z</time>
      </trkpt>
      <trkpt lat="43.72937" lon="6.85288">
        <ele>1263.7902832</ele>
        <time>2011-03-27T11:02:23Z</time>
      </trkpt>
      <trkpt lat="43.72927" lon="6.85294">
        <ele>1261.387207</ele>
        <time>2011-03-27T11:02:30Z</time>
      </trkpt>
      <trkpt lat="43.72917" lon="6.85296">
        <ele>1258.9836426</ele>
        <time>2011-03-27T11:02:34Z</time>
      </trkpt>
      <trkpt lat="43.72902" lon="6.853">
        <ele>1256.5803223</ele>
        <time>2011-03-27T11:02:38Z</time>
      </trkpt>
      <trkpt lat="43.72891" lon="6.85302">
        <ele>1255.6191406</ele>
        <time>2011-03-27T11:02:43Z</time>
      </trkpt>
      <trkpt lat="43.72878" lon="6.85304">
        <ele>1255.6191406</ele>
        <time>2011-03-27T11:02:48Z</time>
      </trkpt>
      <trkpt lat="43.72865" lon="6.85309">
        <ele>1253.6965332</ele>
        <time>2011-03-27T11:02:53Z</time>
      </trkpt>
      <trkpt lat="43.72844" lon="6.85309">
        <ele>1252.2543945</ele>
        <time>2011-03-27T11:02:58Z</time>
      </trkpt>
      <trkpt lat="43.72835" lon="6.85298">
        <ele>1251.2932129</ele>
        <time>2011-03-27T11:03:02Z</time>
      </trkpt>
      <trkpt lat="43.72831" lon="6.85291">
        <ele>1250.3320313</ele>
        <time>2011-03-27T11:03:08Z</time>
      </trkpt>
      <trkpt lat="43.72831" lon="6.85291">
        <ele>1250.3320313</ele>
        <time>2011-03-27T11:03:09Z</time>
      </trkpt>
      <trkpt lat="43.72829" lon="6.85286">
        <ele>1250.3320313</ele>
        <time>2011-03-27T11:03:30Z</time>
      </trkpt>
      <trkpt lat="43.72828" lon="6.85285">
        <ele>1250.3320313</ele>
        <time>2011-03-27T11:03:33Z</time>
      </trkpt>
      <trkpt lat="43.72827" lon="6.85284">
        <ele>1250.3320313</ele>
        <time>2011-03-27T11:03:37Z</time>
      </trkpt>
      <trkpt lat="43.72824" lon="6.85278">
        <ele>1250.3320313</ele>
        <time>2011-03-27T11:03:41Z</time>
      </trkpt>
      <trkpt lat="43.72815" lon="6.85263">
        <ele>1248.4091797</ele>
        <time>2011-03-27T11:03:47Z</time>
      </trkpt>
      <trkpt lat="43.72814" lon="6.85272">
        <ele>1246.0061035</ele>
        <time>2011-03-27T11:03:52Z</time>
      </trkpt>
      <trkpt lat="43.72812" lon="6.85294">
        <ele>1243.1218262</ele>
        <time>2011-03-27T11:03:57Z</time>
      </trkpt>
      <trkpt lat="43.72808" lon="6.85291">
        <ele>1242.1606445</ele>
        <time>2011-03-27T11:04:01Z</time>
      </trkpt>
      <trkpt lat="43.72803" lon="6.85275">
        <ele>1240.2380371</ele>
        <time>2011-03-27T11:04:05Z</time>
      </trkpt>
      <trkpt lat="43.72796" lon="6.85254">
        <ele>1237.3540039</ele>
        <time>2011-03-27T11:04:10Z</time>
      </trkpt>
      <trkpt lat="43.72795" lon="6.85251">
        <ele>1236.873291</ele>
        <time>2011-03-27T11:04:11Z</time>
      </trkpt>
      <trkpt lat="43.72792" lon="6.85258">
        <ele>1233.989502</ele>
        <time>2011-03-27T11:04:16Z</time>
      </trkpt>
      <trkpt lat="43.72789" lon="6.85275">
        <ele>1231.5861816</ele>
        <time>2011-03-27T11:04:20Z</time>
      </trkpt>
      <trkpt lat="43.72789" lon="6.85287">
        <ele>1229.6635742</ele>
        <time>2011-03-27T11:04:23Z</time>
      </trkpt>
      <trkpt lat="43.7279" lon="6.85309">
        <ele>1225.8181152</ele>
        <time>2011-03-27T11:04:29Z</time>
      </trkpt>
      <trkpt lat="43.72787" lon="6.85311">
        <ele>1225.3374023</ele>
        <time>2011-03-27T11:04:33Z</time>
      </trkpt>
      <trkpt lat="43.72781" lon="6.85302">
        <ele>1224.8569336</ele>
        <time>2011-03-27T11:04:38Z</time>
      </trkpt>
      <trkpt lat="43.72774" lon="6.85282">
        <ele>1222.9343262</ele>
        <time>2011-03-27T11:04:43Z</time>
      </trkpt>
      <trkpt lat="43.72773" lon="6.8528">
        <ele>1222.4536133</ele>
        <time>2011-03-27T11:04:44Z</time>
      </trkpt>
      <trkpt lat="43.72771" lon="6.85285">
        <ele>1220.5310059</ele>
        <time>2011-03-27T11:04:49Z</time>
      </trkpt>
      <trkpt lat="43.7277" lon="6.85304">
        <ele>1218.1276855</ele>
        <time>2011-03-27T11:04:53Z</time>
      </trkpt>
      <trkpt lat="43.72769" lon="6.85338">
        <ele>1214.2824707</ele>
        <time>2011-03-27T11:04:58Z</time>
      </trkpt>
      <trkpt lat="43.72771" lon="6.8535">
        <ele>1213.3212891</ele>
        <time>2011-03-27T11:05:00Z</time>
      </trkpt>
      <trkpt lat="43.72777" lon="6.85369">
        <ele>1210.9177246</ele>
        <time>2011-03-27T11:05:05Z</time>
      </trkpt>
      <trkpt lat="43.72781" lon="6.85375">
        <ele>1210.4370117</ele>
        <time>2011-03-27T11:05:07Z</time>
      </trkpt>
      <trkpt lat="43.72782" lon="6.85378">
        <ele>1208.5144043</ele>
        <time>2011-03-27T11:05:11Z</time>
      </trkpt>
      <trkpt lat="43.7278" lon="6.85378">
        <ele>1208.5144043</ele>
        <time>2011-03-27T11:05:14Z</time>
      </trkpt>
      <trkpt lat="43.72777" lon="6.85377">
        <ele>1208.5144043</ele>
        <time>2011-03-27T11:05:19Z</time>
      </trkpt>
      <trkpt lat="43.72776" lon="6.85376">
        <ele>1209.4758301</ele>
        <time>2011-03-27T11:05:29Z</time>
      </trkpt>
      <trkpt lat="43.72776" lon="6.85376">
        <ele>1209.9562988</ele>
        <time>2011-03-27T11:05:30Z</time>
      </trkpt>
      <trkpt lat="43.7277" lon="6.85374">
        <ele>1209.9562988</ele>
        <time>2011-03-27T11:05:40Z</time>
      </trkpt>
      <trkpt lat="43.72759" lon="6.85366">
        <ele>1208.0339355</ele>
        <time>2011-03-27T11:05:45Z</time>
      </trkpt>
      <trkpt lat="43.72752" lon="6.85357">
        <ele>1207.0725098</ele>
        <time>2011-03-27T11:05:48Z</time>
      </trkpt>
      <trkpt lat="43.72738" lon="6.85338">
        <ele>1203.7080078</ele>
        <time>2011-03-27T11:05:53Z</time>
      </trkpt>
      <trkpt lat="43.72731" lon="6.85314">
        <ele>1200.8239746</ele>
        <time>2011-03-27T11:05:57Z</time>
      </trkpt>
      <trkpt lat="43.72731" lon="6.85308">
        <ele>1199.862793</ele>
        <time>2011-03-27T11:05:58Z</time>
      </trkpt>
      <trkpt lat="43.72726" lon="6.85274">
        <ele>1195.0559082</ele>
        <time>2011-03-27T11:06:04Z</time>
      </trkpt>
      <trkpt lat="43.72723" lon="6.85267">
        <ele>1192.652832</ele>
        <time>2011-03-27T11:06:08Z</time>
      </trkpt>
      <trkpt lat="43.72722" lon="6.8527">
        <ele>1191.6914063</ele>
        <time>2011-03-27T11:06:09Z</time>
      </trkpt>
      <trkpt lat="43.72721" lon="6.85294">
        <ele>1186.8847656</ele>
        <time>2011-03-27T11:06:14Z</time>
      </trkpt>
      <trkpt lat="43.72721" lon="6.85297">
        <ele>1185.923584</ele>
        <time>2011-03-27T11:06:15Z</time>
      </trkpt>
      <trkpt lat="43.72717" lon="6.85294">
        <ele>1184.9624023</ele>
        <time>2011-03-27T11:06:20Z</time>
      </trkpt>
      <trkpt lat="43.72715" lon="6.85277">
        <ele>1181.1171875</ele>
        <time>2011-03-27T11:06:25Z</time>
      </trkpt>
      <trkpt lat="43.72711" lon="6.85257">
        <ele>1178.713623</ele>
        <time>2011-03-27T11:06:29Z</time>
      </trkpt>
      <trkpt lat="43.72708" lon="6.85242">
        <ele>1176.7910156</ele>
        <time>2011-03-27T11:06:33Z</time>
      </trkpt>
      <trkpt lat="43.72705" lon="6.85229">
        <ele>1175.348877</ele>
        <time>2011-03-27T11:06:36Z</time>
      </trkpt>
      <trkpt lat="43.72705" lon="6.85229">
        <ele>1175.348877</ele>
        <time>2011-03-27T11:06:36Z</time>
      </trkpt>
      <trkpt lat="43.72702" lon="6.8522">
        <ele>1175.348877</ele>
        <time>2011-03-27T11:06:38Z</time>
      </trkpt>
      <trkpt lat="43.72698" lon="6.85198">
        <ele>1174.3876953</ele>
        <time>2011-03-27T11:06:43Z</time>
      </trkpt>
      <trkpt lat="43.72693" lon="6.85177">
        <ele>1173.4265137</ele>
        <time>2011-03-27T11:06:48Z</time>
      </trkpt>
      <trkpt lat="43.72686" lon="6.8515">
        <ele>1171.0231934</ele>
        <time>2011-03-27T11:06:53Z</time>
      </trkpt>
      <trkpt lat="43.7268" lon="6.85119">
        <ele>1168.1391602</ele>
        <time>2011-03-27T11:06:59Z</time>
      </trkpt>
      <trkpt lat="43.72679" lon="6.85106">
        <ele>1166.6972656</ele>
        <time>2011-03-27T11:07:03Z</time>
      </trkpt>
      <trkpt lat="43.72678" lon="6.85098">
        <ele>1165.2553711</ele>
        <time>2011-03-27T11:07:07Z</time>
      </trkpt>
      <trkpt lat="43.72675" lon="6.85097">
        <ele>1166.2165527</ele>
        <time>2011-03-27T11:07:12Z</time>
      </trkpt>
      <trkpt lat="43.72674" lon="6.851">
        <ele>1165.736084</ele>
        <time>2011-03-27T11:07:14Z</time>
      </trkpt>
      <trkpt lat="43.72674" lon="6.851">
        <ele>1166.6972656</ele>
        <time>2011-03-27T11:07:16Z</time>
      </trkpt>
      <trkpt lat="43.72668" lon="6.85098">
        <ele>1180.1557617</ele>
        <time>2011-03-27T11:08:40Z</time>
      </trkpt>
      <trkpt lat="43.72668" lon="6.85098">
        <ele>1180.1557617</ele>
        <time>2011-03-27T11:08:41Z</time>
      </trkpt>
      <trkpt lat="43.72668" lon="6.85105">
        <ele>1173.4265137</ele>
        <time>2011-03-27T11:09:04Z</time>
      </trkpt>
      <trkpt lat="43.72667" lon="6.85126">
        <ele>1168.1391602</ele>
        <time>2011-03-27T11:09:09Z</time>
      </trkpt>
      <trkpt lat="43.72666" lon="6.8514">
        <ele>1163.8129883</ele>
        <time>2011-03-27T11:09:13Z</time>
      </trkpt>
      <trkpt lat="43.72666" lon="6.85158">
        <ele>1161.890625</ele>
        <time>2011-03-27T11:09:17Z</time>
      </trkpt>
      <trkpt lat="43.72666" lon="6.85182">
        <ele>1159.4873047</ele>
        <time>2011-03-27T11:09:22Z</time>
      </trkpt>
      <trkpt lat="43.72666" lon="6.85207">
        <ele>1156.6032715</ele>
        <time>2011-03-27T11:09:27Z</time>
      </trkpt>
      <trkpt lat="43.72665" lon="6.85231">
        <ele>1154.2001953</ele>
        <time>2011-03-27T11:09:32Z</time>
      </trkpt>
      <trkpt lat="43.72663" lon="6.85257">
        <ele>1151.796875</ele>
        <time>2011-03-27T11:09:37Z</time>
      </trkpt>
      <trkpt lat="43.72662" lon="6.85265">
        <ele>1150.3549805</ele>
        <time>2011-03-27T11:09:40Z</time>
      </trkpt>
      <trkpt lat="43.72661" lon="6.85277">
        <ele>1150.3549805</ele>
        <time>2011-03-27T11:09:46Z</time>
      </trkpt>
      <trkpt lat="43.72659" lon="6.85296">
        <ele>1149.8742676</ele>
        <time>2011-03-27T11:09:52Z</time>
      </trkpt>
      <trkpt lat="43.72658" lon="6.85316">
        <ele>1149.3935547</ele>
        <time>2011-03-27T11:09:57Z</time>
      </trkpt>
      <trkpt lat="43.72656" lon="6.85334">
        <ele>1145.0673828</ele>
        <time>2011-03-27T11:10:03Z</time>
      </trkpt>
      <trkpt lat="43.72656" lon="6.85361">
        <ele>1142.1835938</ele>
        <time>2011-03-27T11:10:09Z</time>
      </trkpt>
      <trkpt lat="43.72656" lon="6.8538">
        <ele>1140.7414551</ele>
        <time>2011-03-27T11:10:14Z</time>
      </trkpt>
      <trkpt lat="43.72657" lon="6.8539">
        <ele>1140.7414551</ele>
        <time>2011-03-27T11:10:18Z</time>
      </trkpt>
      <trkpt lat="43.72657" lon="6.85406">
        <ele>1140.7414551</ele>
        <time>2011-03-27T11:10:23Z</time>
      </trkpt>
      <trkpt lat="43.7266" lon="6.8543">
        <ele>1140.7414551</ele>
        <time>2011-03-27T11:10:29Z</time>
      </trkpt>
      <trkpt lat="43.72665" lon="6.85456">
        <ele>1138.3383789</ele>
        <time>2011-03-27T11:10:34Z</time>
      </trkpt>
      <trkpt lat="43.72666" lon="6.85459">
        <ele>1138.3383789</ele>
        <time>2011-03-27T11:10:35Z</time>
      </trkpt>
      <trkpt lat="43.72669" lon="6.85469">
        <ele>1136.4157715</ele>
        <time>2011-03-27T11:10:40Z</time>
      </trkpt>
      <trkpt lat="43.7267" lon="6.85475">
        <ele>1135.9350586</ele>
        <time>2011-03-27T11:10:42Z</time>
      </trkpt>
      <trkpt lat="43.72676" lon="6.85498">
        <ele>1134.0124512</ele>
        <time>2011-03-27T11:10:48Z</time>
      </trkpt>
      <trkpt lat="43.72679" lon="6.85507">
        <ele>1134.0124512</ele>
        <time>2011-03-27T11:10:52Z</time>
      </trkpt>
      <trkpt lat="43.72682" lon="6.85515">
        <ele>1133.5317383</ele>
        <time>2011-03-27T11:10:56Z</time>
      </trkpt>
      <trkpt lat="43.72682" lon="6.85517">
        <ele>1132.0898438</ele>
        <time>2011-03-27T11:11:00Z</time>
      </trkpt>
      <trkpt lat="43.72679" lon="6.85514">
        <ele>1130.6477051</ele>
        <time>2011-03-27T11:11:07Z</time>
      </trkpt>
      <trkpt lat="43.72679" lon="6.85514">
        <ele>1130.6477051</ele>
        <time>2011-03-27T11:11:09Z</time>
      </trkpt>
      <trkpt lat="43.72679" lon="6.85514">
        <ele>1131.6088867</ele>
        <time>2011-03-27T11:11:14Z</time>
      </trkpt>
      <trkpt lat="43.72676" lon="6.85513">
        <ele>1132.5705566</ele>
        <time>2011-03-27T11:11:19Z</time>
      </trkpt>
      <trkpt lat="43.72666" lon="6.85502">
        <ele>1131.6088867</ele>
        <time>2011-03-27T11:11:26Z</time>
      </trkpt>
      <trkpt lat="43.72659" lon="6.85489">
        <ele>1131.128418</ele>
        <time>2011-03-27T11:11:29Z</time>
      </trkpt>
      <trkpt lat="43.72657" lon="6.85491">
        <ele>1130.1669922</ele>
        <time>2011-03-27T11:11:35Z</time>
      </trkpt>
      <trkpt lat="43.7266" lon="6.85499">
        <ele>1129.6862793</ele>
        <time>2011-03-27T11:11:38Z</time>
      </trkpt>
      <trkpt lat="43.72666" lon="6.85515">
        <ele>1129.2055664</ele>
        <time>2011-03-27T11:11:43Z</time>
      </trkpt>
      <trkpt lat="43.72669" lon="6.85526">
        <ele>1127.7636719</ele>
        <time>2011-03-27T11:11:47Z</time>
      </trkpt>
      <trkpt lat="43.72675" lon="6.85534">
        <ele>1126.3217773</ele>
        <time>2011-03-27T11:11:51Z</time>
      </trkpt>
      <trkpt lat="43.72678" lon="6.85542">
        <ele>1124.8798828</ele>
        <time>2011-03-27T11:11:54Z</time>
      </trkpt>
      <trkpt lat="43.72677" lon="6.85544">
        <ele>1123.4379883</ele>
        <time>2011-03-27T11:11:58Z</time>
      </trkpt>
      <trkpt lat="43.72676" lon="6.85544">
        <ele>1123.4379883</ele>
        <time>2011-03-27T11:12:01Z</time>
      </trkpt>
      <trkpt lat="43.72673" lon="6.85542">
        <ele>1124.3991699</ele>
        <time>2011-03-27T11:12:09Z</time>
      </trkpt>
      <trkpt lat="43.72672" lon="6.85542">
        <ele>1123.4379883</ele>
        <time>2011-03-27T11:12:14Z</time>
      </trkpt>
      <trkpt lat="43.72671" lon="6.85544">
        <ele>1125.3603516</ele>
        <time>2011-03-27T11:12:33Z</time>
      </trkpt>
      <trkpt lat="43.72672" lon="6.85545">
        <ele>1124.3991699</ele>
        <time>2011-03-27T11:14:42Z</time>
      </trkpt>
      <trkpt lat="43.72672" lon="6.85545">
        <ele>1124.3991699</ele>
        <time>2011-03-27T11:14:43Z</time>
      </trkpt>
      <trkpt lat="43.7267" lon="6.85543">
        <ele>1122.9572754</ele>
        <time>2011-03-27T11:14:52Z</time>
      </trkpt>
      <trkpt lat="43.72666" lon="6.8554">
        <ele>1123.4379883</ele>
        <time>2011-03-27T11:15:13Z</time>
      </trkpt>
      <trkpt lat="43.7266" lon="6.85533">
        <ele>1122.9572754</ele>
        <time>2011-03-27T11:15:19Z</time>
      </trkpt>
      <trkpt lat="43.72655" lon="6.85525">
        <ele>1122.9572754</ele>
        <time>2011-03-27T11:15:25Z</time>
      </trkpt>
      <trkpt lat="43.72652" lon="6.85522">
        <ele>1122.4765625</ele>
        <time>2011-03-27T11:15:30Z</time>
      </trkpt>
      <trkpt lat="43.72645" lon="6.85512">
        <ele>1121.5151367</ele>
        <time>2011-03-27T11:15:35Z</time>
      </trkpt>
      <trkpt lat="43.72644" lon="6.8551">
        <ele>1121.5151367</ele>
        <time>2011-03-27T11:15:38Z</time>
      </trkpt>
      <trkpt lat="43.72637" lon="6.85499">
        <ele>1120.5539551</ele>
        <time>2011-03-27T11:15:45Z</time>
      </trkpt>
      <trkpt lat="43.72626" lon="6.8548">
        <ele>1117.6699219</ele>
        <time>2011-03-27T11:15:50Z</time>
      </trkpt>
      <trkpt lat="43.72619" lon="6.85464">
        <ele>1116.2280273</ele>
        <time>2011-03-27T11:15:55Z</time>
      </trkpt>
      <trkpt lat="43.72618" lon="6.85462">
        <ele>1114.7858887</ele>
        <time>2011-03-27T11:15:59Z</time>
      </trkpt>
      <trkpt lat="43.72615" lon="6.85468">
        <ele>1112.3825684</ele>
        <time>2011-03-27T11:16:09Z</time>
      </trkpt>
      <trkpt lat="43.72612" lon="6.85464">
        <ele>1111.4213867</ele>
        <time>2011-03-27T11:16:11Z</time>
      </trkpt>
      <trkpt lat="43.72609" lon="6.85454">
        <ele>1109.979248</ele>
        <time>2011-03-27T11:16:15Z</time>
      </trkpt>
      <trkpt lat="43.72608" lon="6.85452">
        <ele>1109.4987793</ele>
        <time>2011-03-27T11:16:16Z</time>
      </trkpt>
      <trkpt lat="43.726" lon="6.8544">
        <ele>1107.095459</ele>
        <time>2011-03-27T11:16:21Z</time>
      </trkpt>
      <trkpt lat="43.72596" lon="6.85428">
        <ele>1105.1728516</ele>
        <time>2011-03-27T11:16:25Z</time>
      </trkpt>
      <trkpt lat="43.72594" lon="6.85422">
        <ele>1103.2502441</ele>
        <time>2011-03-27T11:16:30Z</time>
      </trkpt>
      <trkpt lat="43.72594" lon="6.8542">
        <ele>1102.7695313</ele>
        <time>2011-03-27T11:16:31Z</time>
      </trkpt>
      <trkpt lat="43.72592" lon="6.85414">
        <ele>1101.8083496</ele>
        <time>2011-03-27T11:16:33Z</time>
      </trkpt>
      <trkpt lat="43.72588" lon="6.85407">
        <ele>1099.885498</ele>
        <time>2011-03-27T11:16:37Z</time>
      </trkpt>
      <trkpt lat="43.72584" lon="6.85411">
        <ele>1097.9628906</ele>
        <time>2011-03-27T11:16:41Z</time>
      </trkpt>
      <trkpt lat="43.72584" lon="6.85419">
        <ele>1096.0402832</ele>
        <time>2011-03-27T11:16:44Z</time>
      </trkpt>
      <trkpt lat="43.72584" lon="6.85421">
        <ele>1095.5595703</ele>
        <time>2011-03-27T11:16:45Z</time>
      </trkpt>
      <trkpt lat="43.72583" lon="6.85422">
        <ele>1094.5981445</ele>
        <time>2011-03-27T11:16:49Z</time>
      </trkpt>
      <trkpt lat="43.72578" lon="6.85413">
        <ele>1093.15625</ele>
        <time>2011-03-27T11:16:55Z</time>
      </trkpt>
      <trkpt lat="43.72575" lon="6.85395">
        <ele>1091.7143555</ele>
        <time>2011-03-27T11:17:01Z</time>
      </trkpt>
      <trkpt lat="43.72572" lon="6.85383">
        <ele>1090.2724609</ele>
        <time>2011-03-27T11:17:05Z</time>
      </trkpt>
      <trkpt lat="43.72571" lon="6.85373">
        <ele>1089.791748</ele>
        <time>2011-03-27T11:17:09Z</time>
      </trkpt>
      <trkpt lat="43.72569" lon="6.85373">
        <ele>1089.3110352</ele>
        <time>2011-03-27T11:17:13Z</time>
      </trkpt>
      <trkpt lat="43.72568" lon="6.8538">
        <ele>1087.8691406</ele>
        <time>2011-03-27T11:17:17Z</time>
      </trkpt>
      <trkpt lat="43.72567" lon="6.85382">
        <ele>1087.8691406</ele>
        <time>2011-03-27T11:17:19Z</time>
      </trkpt>
      <trkpt lat="43.72565" lon="6.85377">
        <ele>1086.9077148</ele>
        <time>2011-03-27T11:17:23Z</time>
      </trkpt>
      <trkpt lat="43.72562" lon="6.85362">
        <ele>1085.4658203</ele>
        <time>2011-03-27T11:17:29Z</time>
      </trkpt>
      <trkpt lat="43.7256" lon="6.85361">
        <ele>1085.4658203</ele>
        <time>2011-03-27T11:17:34Z</time>
      </trkpt>
      <trkpt lat="43.72561" lon="6.85379">
        <ele>1083.5429688</ele>
        <time>2011-03-27T11:17:45Z</time>
      </trkpt>
      <trkpt lat="43.72562" lon="6.85408">
        <ele>1082.1010742</ele>
        <time>2011-03-27T11:17:51Z</time>
      </trkpt>
      <trkpt lat="43.72562" lon="6.85425">
        <ele>1080.6591797</ele>
        <time>2011-03-27T11:17:56Z</time>
      </trkpt>
      <trkpt lat="43.72562" lon="6.85442">
        <ele>1078.7365723</ele>
        <time>2011-03-27T11:18:00Z</time>
      </trkpt>
      <trkpt lat="43.72563" lon="6.85448">
        <ele>1077.2946777</ele>
        <time>2011-03-27T11:18:03Z</time>
      </trkpt>
      <trkpt lat="43.72564" lon="6.85464">
        <ele>1074.8913574</ele>
        <time>2011-03-27T11:18:08Z</time>
      </trkpt>
      <trkpt lat="43.72566" lon="6.85489">
        <ele>1072.4880371</ele>
        <time>2011-03-27T11:18:13Z</time>
      </trkpt>
      <trkpt lat="43.72573" lon="6.85523">
        <ele>1070.0847168</ele>
        <time>2011-03-27T11:18:19Z</time>
      </trkpt>
      <trkpt lat="43.72574" lon="6.85535">
        <ele>1069.1235352</ele>
        <time>2011-03-27T11:18:21Z</time>
      </trkpt>
      <trkpt lat="43.72581" lon="6.85555">
        <ele>1067.6811523</ele>
        <time>2011-03-27T11:18:25Z</time>
      </trkpt>
      <trkpt lat="43.72589" lon="6.85575">
        <ele>1069.1235352</ele>
        <time>2011-03-27T11:18:29Z</time>
      </trkpt>
      <trkpt lat="43.72597" lon="6.85597">
        <ele>1067.2006836</ele>
        <time>2011-03-27T11:18:34Z</time>
      </trkpt>
      <trkpt lat="43.72597" lon="6.85597">
        <ele>1067.2006836</ele>
        <time>2011-03-27T11:18:34Z</time>
      </trkpt>
      <trkpt lat="43.72599" lon="6.85601">
        <ele>1067.2006836</ele>
        <time>2011-03-27T11:18:35Z</time>
      </trkpt>
      <trkpt lat="43.72605" lon="6.85615">
        <ele>1066.7199707</ele>
        <time>2011-03-27T11:18:39Z</time>
      </trkpt>
      <trkpt lat="43.72612" lon="6.85627">
        <ele>1067.6811523</ele>
        <time>2011-03-27T11:18:44Z</time>
      </trkpt>
      <trkpt lat="43.72612" lon="6.85627">
        <ele>1067.6811523</ele>
        <time>2011-03-27T11:18:46Z</time>
      </trkpt>
      <trkpt lat="43.72621" lon="6.85642">
        <ele>1066.2392578</ele>
        <time>2011-03-27T11:18:51Z</time>
      </trkpt>
      <trkpt lat="43.72634" lon="6.85656">
        <ele>1063.8359375</ele>
        <time>2011-03-27T11:18:55Z</time>
      </trkpt>
      <trkpt lat="43.72647" lon="6.85668">
        <ele>1061.4328613</ele>
        <time>2011-03-27T11:18:59Z</time>
      </trkpt>
      <trkpt lat="43.72666" lon="6.85682">
        <ele>1061.4328613</ele>
        <time>2011-03-27T11:19:05Z</time>
      </trkpt>
      <trkpt lat="43.72668" lon="6.85682">
        <ele>1061.4328613</ele>
        <time>2011-03-27T11:19:06Z</time>
      </trkpt>
      <trkpt lat="43.7267" lon="6.85684">
        <ele>1060.4714355</ele>
        <time>2011-03-27T11:19:10Z</time>
      </trkpt>
      <trkpt lat="43.72668" lon="6.85685">
        <ele>1059.5102539</ele>
        <time>2011-03-27T11:19:15Z</time>
      </trkpt>
      <trkpt lat="43.72664" lon="6.85686">
        <ele>1061.9135742</ele>
        <time>2011-03-27T11:19:21Z</time>
      </trkpt>
      <trkpt lat="43.72653" lon="6.85687">
        <ele>1060.9521484</ele>
        <time>2011-03-27T11:19:32Z</time>
      </trkpt>
      <trkpt lat="43.72634" lon="6.85681">
        <ele>1059.029541</ele>
        <time>2011-03-27T11:19:38Z</time>
      </trkpt>
      <trkpt lat="43.72612" lon="6.85671">
        <ele>1055.6650391</ele>
        <time>2011-03-27T11:19:44Z</time>
      </trkpt>
      <trkpt lat="43.72587" lon="6.85653">
        <ele>1053.2617188</ele>
        <time>2011-03-27T11:19:50Z</time>
      </trkpt>
      <trkpt lat="43.7258" lon="6.85646">
        <ele>1051.8195801</ele>
        <time>2011-03-27T11:19:52Z</time>
      </trkpt>
      <trkpt lat="43.72571" lon="6.85636">
        <ele>1048.9355469</ele>
        <time>2011-03-27T11:19:57Z</time>
      </trkpt>
      <trkpt lat="43.7257" lon="6.85634">
        <ele>1048.454834</ele>
        <time>2011-03-27T11:19:58Z</time>
      </trkpt>
      <trkpt lat="43.72557" lon="6.85616">
        <ele>1048.454834</ele>
        <time>2011-03-27T11:20:05Z</time>
      </trkpt>
      <trkpt lat="43.72546" lon="6.85603">
        <ele>1047.0129395</ele>
        <time>2011-03-27T11:20:10Z</time>
      </trkpt>
      <trkpt lat="43.72535" lon="6.85589">
        <ele>1045.5710449</ele>
        <time>2011-03-27T11:20:14Z</time>
      </trkpt>
      <trkpt lat="43.72525" lon="6.85569">
        <ele>1043.6484375</ele>
        <time>2011-03-27T11:20:19Z</time>
      </trkpt>
      <trkpt lat="43.72519" lon="6.85556">
        <ele>1042.206543</ele>
        <time>2011-03-27T11:20:23Z</time>
      </trkpt>
      <trkpt lat="43.72519" lon="6.85557">
        <ele>1041.2451172</ele>
        <time>2011-03-27T11:20:28Z</time>
      </trkpt>
      <trkpt lat="43.72519" lon="6.85558">
        <ele>1041.2451172</ele>
        <time>2011-03-27T11:20:29Z</time>
      </trkpt>
      <trkpt lat="43.7252" lon="6.8556">
        <ele>1041.2451172</ele>
        <time>2011-03-27T11:20:32Z</time>
      </trkpt>
      <trkpt lat="43.72524" lon="6.85574">
        <ele>1040.2839355</ele>
        <time>2011-03-27T11:20:37Z</time>
      </trkpt>
      <trkpt lat="43.72533" lon="6.85602">
        <ele>1038.3613281</ele>
        <time>2011-03-27T11:20:45Z</time>
      </trkpt>
      <trkpt lat="43.72542" lon="6.85624">
        <ele>1035.4770508</ele>
        <time>2011-03-27T11:20:50Z</time>
      </trkpt>
      <trkpt lat="43.72553" lon="6.85651">
        <ele>1034.996582</ele>
        <time>2011-03-27T11:20:55Z</time>
      </trkpt>
      <trkpt lat="43.72561" lon="6.85668">
        <ele>1034.0351563</ele>
        <time>2011-03-27T11:20:58Z</time>
      </trkpt>
      <trkpt lat="43.72569" lon="6.85686">
        <ele>1032.1125488</ele>
        <time>2011-03-27T11:21:01Z</time>
      </trkpt>
      <trkpt lat="43.72578" lon="6.85699">
        <ele>1030.6706543</ele>
        <time>2011-03-27T11:21:04Z</time>
      </trkpt>
      <trkpt lat="43.72584" lon="6.85706">
        <ele>1029.2285156</ele>
        <time>2011-03-27T11:21:07Z</time>
      </trkpt>
      <trkpt lat="43.726" lon="6.85727">
        <ele>1025.8640137</ele>
        <time>2011-03-27T11:21:13Z</time>
      </trkpt>
      <trkpt lat="43.72615" lon="6.85741">
        <ele>1023.4609375</ele>
        <time>2011-03-27T11:21:17Z</time>
      </trkpt>
      <trkpt lat="43.72621" lon="6.85746">
        <ele>1021.0576172</ele>
        <time>2011-03-27T11:21:19Z</time>
      </trkpt>
      <trkpt lat="43.72637" lon="6.85758">
        <ele>1019.1347656</ele>
        <time>2011-03-27T11:21:23Z</time>
      </trkpt>
      <trkpt lat="43.7265" lon="6.85765">
        <ele>1019.6154785</ele>
        <time>2011-03-27T11:21:26Z</time>
      </trkpt>
      <trkpt lat="43.72672" lon="6.85773">
        <ele>1018.1733398</ele>
        <time>2011-03-27T11:21:32Z</time>
      </trkpt>
      <trkpt lat="43.72684" lon="6.85779">
        <ele>1018.6540527</ele>
        <time>2011-03-27T11:21:38Z</time>
      </trkpt>
      <trkpt lat="43.7269" lon="6.85781">
        <ele>1016.7314453</ele>
        <time>2011-03-27T11:21:43Z</time>
      </trkpt>
      <trkpt lat="43.72691" lon="6.85781">
        <ele>1016.7314453</ele>
        <time>2011-03-27T11:21:44Z</time>
      </trkpt>
      <trkpt lat="43.72691" lon="6.85782">
        <ele>1014.8088379</ele>
        <time>2011-03-27T11:21:52Z</time>
      </trkpt>
      <trkpt lat="43.72692" lon="6.85783">
        <ele>1014.8088379</ele>
        <time>2011-03-27T11:21:55Z</time>
      </trkpt>
      <trkpt lat="43.72692" lon="6.85783">
        <ele>1014.328125</ele>
        <time>2011-03-27T11:21:56Z</time>
      </trkpt>
      <trkpt lat="43.7269" lon="6.85785">
        <ele>1012.4055176</ele>
        <time>2011-03-27T11:22:03Z</time>
      </trkpt>
      <trkpt lat="43.72672" lon="6.85787">
        <ele>1015.7702637</ele>
        <time>2011-03-27T11:22:11Z</time>
      </trkpt>
      <trkpt lat="43.72656" lon="6.85794">
        <ele>1013.8474121</ele>
        <time>2011-03-27T11:22:16Z</time>
      </trkpt>
      <trkpt lat="43.72639" lon="6.85795">
        <ele>1010.4829102</ele>
        <time>2011-03-27T11:22:20Z</time>
      </trkpt>
      <trkpt lat="43.72619" lon="6.85795">
        <ele>1006.1569824</ele>
        <time>2011-03-27T11:22:24Z</time>
      </trkpt>
      <trkpt lat="43.72596" lon="6.85791">
        <ele>1002.3115234</ele>
        <time>2011-03-27T11:22:30Z</time>
      </trkpt>
      <trkpt lat="43.72577" lon="6.85785">
        <ele>1000.3891602</ele>
        <time>2011-03-27T11:22:36Z</time>
      </trkpt>
      <trkpt lat="43.72561" lon="6.85776">
        <ele>998.4663086</ele>
        <time>2011-03-27T11:22:40Z</time>
      </trkpt>
      <trkpt lat="43.72547" lon="6.85766">
        <ele>995.5825195</ele>
        <time>2011-03-27T11:22:44Z</time>
      </trkpt>
      <trkpt lat="43.72526" lon="6.85756">
        <ele>992.2180176</ele>
        <time>2011-03-27T11:22:49Z</time>
      </trkpt>
      <trkpt lat="43.72514" lon="6.85747">
        <ele>991.2565918</ele>
        <time>2011-03-27T11:22:52Z</time>
      </trkpt>
      <trkpt lat="43.72499" lon="6.85733">
        <ele>989.8146973</ele>
        <time>2011-03-27T11:22:55Z</time>
      </trkpt>
      <trkpt lat="43.72476" lon="6.8571">
        <ele>987.8918457</ele>
        <time>2011-03-27T11:23:00Z</time>
      </trkpt>
      <trkpt lat="43.7247" lon="6.85704">
        <ele>984.0466309</ele>
        <time>2011-03-27T11:23:02Z</time>
      </trkpt>
      <trkpt lat="43.72461" lon="6.85694">
        <ele>980.6821289</ele>
        <time>2011-03-27T11:23:05Z</time>
      </trkpt>
      <trkpt lat="43.72457" lon="6.85686">
        <ele>980.201416</ele>
        <time>2011-03-27T11:23:07Z</time>
      </trkpt>
      <trkpt lat="43.72448" lon="6.85673">
        <ele>980.6821289</ele>
        <time>2011-03-27T11:23:12Z</time>
      </trkpt>
      <trkpt lat="43.72446" lon="6.85672">
        <ele>981.6433105</ele>
        <time>2011-03-27T11:23:18Z</time>
      </trkpt>
      <trkpt lat="43.72444" lon="6.85675">
        <ele>983.565918</ele>
        <time>2011-03-27T11:23:25Z</time>
      </trkpt>
      <trkpt lat="43.7244" lon="6.85673">
        <ele>988.3728027</ele>
        <time>2011-03-27T11:23:30Z</time>
      </trkpt>
      <trkpt lat="43.72439" lon="6.85669">
        <ele>991.7373047</ele>
        <time>2011-03-27T11:23:45Z</time>
      </trkpt>
      <trkpt lat="43.72439" lon="6.85667">
        <ele>990.2954102</ele>
        <time>2011-03-27T11:23:48Z</time>
      </trkpt>
      <trkpt lat="43.72436" lon="6.85662">
        <ele>986.4499512</ele>
        <time>2011-03-27T11:23:52Z</time>
      </trkpt>
      <trkpt lat="43.72444" lon="6.85681">
        <ele>978.7595215</ele>
        <time>2011-03-27T11:23:57Z</time>
      </trkpt>
      <trkpt lat="43.72454" lon="6.85708">
        <ele>970.1074219</ele>
        <time>2011-03-27T11:24:02Z</time>
      </trkpt>
      <trkpt lat="43.72457" lon="6.85716">
        <ele>969.1462402</ele>
        <time>2011-03-27T11:24:03Z</time>
      </trkpt>
      <trkpt lat="43.72467" lon="6.85745">
        <ele>965.3010254</ele>
        <time>2011-03-27T11:24:07Z</time>
      </trkpt>
      <trkpt lat="43.72473" lon="6.85768">
        <ele>966.262207</ele>
        <time>2011-03-27T11:24:10Z</time>
      </trkpt>
      <trkpt lat="43.72473" lon="6.85768">
        <ele>966.262207</ele>
        <time>2011-03-27T11:24:10Z</time>
      </trkpt>
      <trkpt lat="43.72484" lon="6.85792">
        <ele>964.8203125</ele>
        <time>2011-03-27T11:24:13Z</time>
      </trkpt>
      <trkpt lat="43.725" lon="6.85821">
        <ele>967.2236328</ele>
        <time>2011-03-27T11:24:18Z</time>
      </trkpt>
      <trkpt lat="43.72506" lon="6.85833">
        <ele>970.1074219</ele>
        <time>2011-03-27T11:24:20Z</time>
      </trkpt>
      <trkpt lat="43.72512" lon="6.85839">
        <ele>970.1074219</ele>
        <time>2011-03-27T11:24:22Z</time>
      </trkpt>
      <trkpt lat="43.72516" lon="6.8586">
        <ele>971.5493164</ele>
        <time>2011-03-27T11:24:28Z</time>
      </trkpt>
      <trkpt lat="43.72523" lon="6.85873">
        <ele>968.6655273</ele>
        <time>2011-03-27T11:24:31Z</time>
      </trkpt>
      <trkpt lat="43.7254" lon="6.859">
        <ele>965.3010254</ele>
        <time>2011-03-27T11:24:36Z</time>
      </trkpt>
      <trkpt lat="43.7256" lon="6.8592">
        <ele>961.4558105</ele>
        <time>2011-03-27T11:24:40Z</time>
      </trkpt>
      <trkpt lat="43.7257" lon="6.85931">
        <ele>959.0524902</ele>
        <time>2011-03-27T11:24:42Z</time>
      </trkpt>
      <trkpt lat="43.72583" lon="6.85947">
        <ele>956.168457</ele>
        <time>2011-03-27T11:24:47Z</time>
      </trkpt>
      <trkpt lat="43.72583" lon="6.85954">
        <ele>952.8037109</ele>
        <time>2011-03-27T11:24:52Z</time>
      </trkpt>
      <trkpt lat="43.72577" lon="6.85953">
        <ele>949.439209</ele>
        <time>2011-03-27T11:24:58Z</time>
      </trkpt>
      <trkpt lat="43.72576" lon="6.85953">
        <ele>948.4777832</ele>
        <time>2011-03-27T11:24:59Z</time>
      </trkpt>
      <trkpt lat="43.72571" lon="6.85952">
        <ele>950.4006348</ele>
        <time>2011-03-27T11:25:02Z</time>
      </trkpt>
      <trkpt lat="43.72563" lon="6.85949">
        <ele>947.0358887</ele>
        <time>2011-03-27T11:25:07Z</time>
      </trkpt>
      <trkpt lat="43.72553" lon="6.85946">
        <ele>942.2294922</ele>
        <time>2011-03-27T11:25:11Z</time>
      </trkpt>
      <trkpt lat="43.72536" lon="6.85941">
        <ele>936.4614258</ele>
        <time>2011-03-27T11:25:15Z</time>
      </trkpt>
      <trkpt lat="43.72518" lon="6.85928">
        <ele>933.0966797</ele>
        <time>2011-03-27T11:25:19Z</time>
      </trkpt>
      <trkpt lat="43.72508" lon="6.85923">
        <ele>929.7321777</ele>
        <time>2011-03-27T11:25:21Z</time>
      </trkpt>
      <trkpt lat="43.7248" lon="6.85907">
        <ele>926.3676758</ele>
        <time>2011-03-27T11:25:26Z</time>
      </trkpt>
      <trkpt lat="43.72477" lon="6.85906">
        <ele>924.9257813</ele>
        <time>2011-03-27T11:25:27Z</time>
      </trkpt>
      <trkpt lat="43.72463" lon="6.85899">
        <ele>923.4836426</ele>
        <time>2011-03-27T11:25:32Z</time>
      </trkpt>
      <trkpt lat="43.72458" lon="6.85893">
        <ele>926.3676758</ele>
        <time>2011-03-27T11:25:37Z</time>
      </trkpt>
      <trkpt lat="43.72454" lon="6.85894">
        <ele>925.8869629</ele>
        <time>2011-03-27T11:25:41Z</time>
      </trkpt>
      <trkpt lat="43.7244" lon="6.85885">
        <ele>929.2514648</ele>
        <time>2011-03-27T11:25:47Z</time>
      </trkpt>
      <trkpt lat="43.72429" lon="6.85876">
        <ele>929.2514648</ele>
        <time>2011-03-27T11:25:52Z</time>
      </trkpt>
      <trkpt lat="43.72425" lon="6.85875">
        <ele>929.7321777</ele>
        <time>2011-03-27T11:25:55Z</time>
      </trkpt>
      <trkpt lat="43.72418" lon="6.85885">
        <ele>935.5</ele>
        <time>2011-03-27T11:26:01Z</time>
      </trkpt>
      <trkpt lat="43.72418" lon="6.85895">
        <ele>934.0581055</ele>
        <time>2011-03-27T11:26:06Z</time>
      </trkpt>
      <trkpt lat="43.72414" lon="6.85898">
        <ele>933.0966797</ele>
        <time>2011-03-27T11:26:11Z</time>
      </trkpt>
      <trkpt lat="43.7241" lon="6.85896">
        <ele>930.2128906</ele>
        <time>2011-03-27T11:26:14Z</time>
      </trkpt>
      <trkpt lat="43.72411" lon="6.85891">
        <ele>926.8483887</ele>
        <time>2011-03-27T11:26:18Z</time>
      </trkpt>
      <trkpt lat="43.72413" lon="6.859">
        <ele>925.8869629</ele>
        <time>2011-03-27T11:26:24Z</time>
      </trkpt>
      <trkpt lat="43.72414" lon="6.8591">
        <ele>928.7709961</ele>
        <time>2011-03-27T11:26:29Z</time>
      </trkpt>
      <trkpt lat="43.72414" lon="6.85915">
        <ele>930.2128906</ele>
        <time>2011-03-27T11:26:32Z</time>
      </trkpt>
      <trkpt lat="43.72415" lon="6.8592">
        <ele>933.0966797</ele>
        <time>2011-03-27T11:26:36Z</time>
      </trkpt>
      <trkpt lat="43.72425" lon="6.85928">
        <ele>925.8869629</ele>
        <time>2011-03-27T11:26:41Z</time>
      </trkpt>
      <trkpt lat="43.72437" lon="6.85937">
        <ele>924.9257813</ele>
        <time>2011-03-27T11:26:44Z</time>
      </trkpt>
      <trkpt lat="43.72431" lon="6.85948">
        <ele>918.677002</ele>
        <time>2011-03-27T11:26:48Z</time>
      </trkpt>
      <trkpt lat="43.72418" lon="6.85949">
        <ele>917.7155762</ele>
        <time>2011-03-27T11:26:51Z</time>
      </trkpt>
      <trkpt lat="43.72393" lon="6.85957">
        <ele>913.8703613</ele>
        <time>2011-03-27T11:26:56Z</time>
      </trkpt>
      <trkpt lat="43.72376" lon="6.85969">
        <ele>910.0251465</ele>
        <time>2011-03-27T11:27:00Z</time>
      </trkpt>
      <trkpt lat="43.72368" lon="6.85978">
        <ele>909.0639648</ele>
        <time>2011-03-27T11:27:02Z</time>
      </trkpt>
      <trkpt lat="43.72349" lon="6.8601">
        <ele>902.3344727</ele>
        <time>2011-03-27T11:27:07Z</time>
      </trkpt>
      <trkpt lat="43.72345" lon="6.86017">
        <ele>900.8925781</ele>
        <time>2011-03-27T11:27:08Z</time>
      </trkpt>
      <trkpt lat="43.72327" lon="6.86035">
        <ele>898.9699707</ele>
        <time>2011-03-27T11:27:11Z</time>
      </trkpt>
      <trkpt lat="43.72313" lon="6.86037">
        <ele>896.5668945</ele>
        <time>2011-03-27T11:27:13Z</time>
      </trkpt>
      <trkpt lat="43.72256" lon="6.86033">
        <ele>892.2409668</ele>
        <time>2011-03-27T11:27:20Z</time>
      </trkpt>
      <trkpt lat="43.72239" lon="6.86031">
        <ele>890.798584</ele>
        <time>2011-03-27T11:27:22Z</time>
      </trkpt>
      <trkpt lat="43.72213" lon="6.86018">
        <ele>888.3955078</ele>
        <time>2011-03-27T11:27:26Z</time>
      </trkpt>
      <trkpt lat="43.72204" lon="6.86008">
        <ele>886.4729004</ele>
        <time>2011-03-27T11:27:28Z</time>
      </trkpt>
      <trkpt lat="43.72186" lon="6.86006">
        <ele>883.5888672</ele>
        <time>2011-03-27T11:27:32Z</time>
      </trkpt>
      <trkpt lat="43.7218" lon="6.8601">
        <ele>884.550293</ele>
        <time>2011-03-27T11:27:35Z</time>
      </trkpt>
      <trkpt lat="43.7218" lon="6.86012">
        <ele>883.1081543</ele>
        <time>2011-03-27T11:27:37Z</time>
      </trkpt>
      <trkpt lat="43.72177" lon="6.86024">
        <ele>880.2243652</ele>
        <time>2011-03-27T11:27:41Z</time>
      </trkpt>
      <trkpt lat="43.72177" lon="6.86041">
        <ele>879.7436523</ele>
        <time>2011-03-27T11:27:45Z</time>
      </trkpt>
      <trkpt lat="43.72178" lon="6.86047">
        <ele>878.7824707</ele>
        <time>2011-03-27T11:27:48Z</time>
      </trkpt>
      <trkpt lat="43.72178" lon="6.86048">
        <ele>879.2629395</ele>
        <time>2011-03-27T11:27:50Z</time>
      </trkpt>
      <trkpt lat="43.72172" lon="6.86059">
        <ele>879.7436523</ele>
        <time>2011-03-27T11:27:56Z</time>
      </trkpt>
      <trkpt lat="43.72169" lon="6.86062">
        <ele>879.7436523</ele>
        <time>2011-03-27T11:27:57Z</time>
      </trkpt>
      <trkpt lat="43.72146" lon="6.86075">
        <ele>877.8210449</ele>
        <time>2011-03-27T11:28:03Z</time>
      </trkpt>
      <trkpt lat="43.7213" lon="6.86073">
        <ele>877.8210449</ele>
        <time>2011-03-27T11:28:06Z</time>
      </trkpt>
      <trkpt lat="43.72102" lon="6.86071">
        <ele>874.9370117</ele>
        <time>2011-03-27T11:28:10Z</time>
      </trkpt>
      <trkpt lat="43.72063" lon="6.86065">
        <ele>873.4951172</ele>
        <time>2011-03-27T11:28:15Z</time>
      </trkpt>
      <trkpt lat="43.7204" lon="6.86069">
        <ele>872.0529785</ele>
        <time>2011-03-27T11:28:18Z</time>
      </trkpt>
      <trkpt lat="43.72033" lon="6.8607">
        <ele>871.5722656</ele>
        <time>2011-03-27T11:28:19Z</time>
      </trkpt>
      <trkpt lat="43.72033" lon="6.8607">
        <ele>871.5722656</ele>
        <time>2011-03-27T11:28:19Z</time>
      </trkpt>
      <trkpt lat="43.7202" lon="6.86067">
        <ele>872.0529785</ele>
        <time>2011-03-27T11:28:21Z</time>
      </trkpt>
      <trkpt lat="43.71997" lon="6.86071">
        <ele>870.1303711</ele>
        <time>2011-03-27T11:28:26Z</time>
      </trkpt>
      <trkpt lat="43.71991" lon="6.86065">
        <ele>867.7270508</ele>
        <time>2011-03-27T11:28:32Z</time>
      </trkpt>
      <trkpt lat="43.71991" lon="6.86064">
        <ele>866.7658691</ele>
        <time>2011-03-27T11:28:34Z</time>
      </trkpt>
      <trkpt lat="43.71991" lon="6.86062">
        <ele>866.7658691</ele>
        <time>2011-03-27T11:28:42Z</time>
      </trkpt>
      <trkpt lat="43.71994" lon="6.86063">
        <ele>867.7270508</ele>
        <time>2011-03-27T11:29:01Z</time>
      </trkpt>
      <trkpt lat="43.71994" lon="6.86064">
        <ele>868.2077637</ele>
        <time>2011-03-27T11:29:05Z</time>
      </trkpt>
      <trkpt lat="43.71994" lon="6.86064">
        <ele>868.2077637</ele>
        <time>2011-03-27T11:29:07Z</time>
      </trkpt>
      <trkpt lat="43.71993" lon="6.86063">
        <ele>868.2077637</ele>
        <time>2011-03-27T11:29:18Z</time>
      </trkpt>
      <trkpt lat="43.71993" lon="6.86063">
        <ele>872.0529785</ele>
        <time>2011-03-27T11:29:35Z</time>
      </trkpt>
      <trkpt lat="43.71993" lon="6.86064">
        <ele>873.4951172</ele>
        <time>2011-03-27T11:29:37Z</time>
      </trkpt>
      <trkpt lat="43.71989" lon="6.86061">
        <ele>876.8598633</ele>
        <time>2011-03-27T11:31:18Z</time>
      </trkpt>
    </trkseg>
  </trk>
</gpx>